Return to Metar
METAR CYNL 161500Z AUTO 25006KT 9SM CLR M12/M15 A2986 RMK AO1 PRESFR SLP167
METAR CYNL 161400Z AUTO 26006KT 9SM CLR M11/M14 A2989 RMK AO1 SLP176
METAR CYNL 161300Z AUTO 24008KT 9SM CLR M11/M14 A2990 RMK AO1 SLP182
METAR CYNL 161200Z AUTO 25007KT 9SM CLR M11/M14 A2992 RMK AO1 PRESFR SLP187
METAR CYNL 161100Z AUTO 25008KT 9SM CLR M10/M14 A2994 RMK AO1 SLP197
METAR CYNL 161000Z AUTO 24009KT 9SM CLR M11/M14 A2996 RMK AO1 PRESFR SLP203
METAR CYNL 160900Z AUTO 25010G16KT 9SM CLR M11/M15 A2998 RMK AO1 PRESFR SLP213
METAR CYNL 160800Z AUTO 25010KT 9SM CLR M11/M15 A3002 RMK AO1 PRESFR SLP228
METAR CYNL 160700Z AUTO 25010G22KT 9SM CLR M11/M15 A3006 RMK AO1 PRESFR SLP240
METAR CYNL 160600Z AUTO 25011G16KT 9SM CLR M11/M15 A3008 RMK AO1 PRESFR SLP251
METAR CYNL 160500Z AUTO 25008KT 9SM CLR M11/M15 A3011 RMK AO1 SLP265
METAR CYNL 160400Z AUTO 23006KT 9SM FEW180 M12/M15 A3011 RMK AO1 PRESFR SLP269
METAR CYNL 160300Z AUTO 22009KT 9SM BKN180 M13/M16 A3013 RMK AO1 PRESFR SLP282
METAR CYNL 160200Z AUTO ///// 9SM FEW150 M13/M16 A3017 RMK AO1 PRESFR SLP300
METAR CYNL 160100Z AUTO ///// 9SM OVC150 M13/M17 A3022 RMK AO1 PRESFR SLP319
METAR CYNL 160000Z AUTO ///// 9SM OVC150 M14/M17 A3028 RMK AO1 PRESFR SLP342
METAR CYNL 152300Z AUTO ///// 9SM CLR M15/M18 A3034 RMK AO1 PRESFR SLP361
METAR CYNL 152200Z AUTO ///// 9SM OVC120 M15/M18 A3036 RMK AO1 PRESFR SLP370
METAR CYNL 152100Z AUTO ///// 9SM SCT110 M16/M19 A3040 RMK AO1 PRESFR SLP384
METAR CYNL 152000Z AUTO ///// 9SM CLR M17/M20 A3044 RMK AO1 PRESFR SLP400
METAR CYNL 151900Z AUTO 22008KT 9SM CLR M18/M22 A3049 RMK AO1 PRESFR SLP421
METAR CYNL 151800Z AUTO 22004KT 9SM BKN120 M22/M25 A3055 RMK AO1 PRESFR SLP444
METAR CYNL 151700Z AUTO ///// 9SM SCT130 M25/M28 A3058 RMK AO1 SLP457
METAR CYNL 151600Z AUTO ///// 9SM CLR M28/M32 A3058 RMK AO1 SLP464
METAR CYNL 151500Z AUTO 23004KT 9SM CLR M30/M34 A3060 RMK AO1 PRESFR SLP473
METAR CYNL 151400Z AUTO 23004KT 9SM FEW160 M32/M36 A3064 RMK AO1 SLP488
METAR CYNL 151300Z AUTO 22002KT 9SM CLR M31/M36 A3066 RMK AO1 SLP495
METAR CYNL 151200Z AUTO 25004KT 9SM FEW180 M32/M37 A3067 RMK AO1 PRESFR SLP499
METAR CYNL 151100Z AUTO 23003KT 9SM CLR M32/M37 A3069 RMK AO1 SLPNO
METAR CYNL 151000Z AUTO 23003KT 9SM CLR M32/M36 A3071 RMK AO1 PRESFR SLPNO
METAR CYNL 150900Z AUTO 24005KT 9SM CLR M32/M36 A3074 RMK AO1 SLPNO
METAR CYNL 150800Z AUTO 25003KT 9SM CLR M32/M36 A3073 RMK AO1 SLPNO
METAR CYNL 150700Z AUTO 23003KT 9SM CLR M32/M37 A3072 RMK AO1 SLPNO
METAR CYNL 150600Z AUTO 25003KT 9SM CLR M31/M36 A3072 RMK AO1 SLPNO
METAR CYNL 150500Z AUTO ///// 9SM CLR M31/M36 A3072 RMK AO1 SLPNO
METAR CYNL 150400Z AUTO ///// 9SM CLR M31/M35 A3070 RMK AO1 SLPNO
METAR CYNL 150300Z AUTO ///// 9SM CLR M31/M36 A3070 RMK AO1 PRESRR SLPNO
METAR CYNL 150200Z AUTO 26002KT 9SM CLR M31/M36 A3067 RMK AO1 SLP499
METAR CYNL 150100Z AUTO ///// 9SM CLR M31/M35 A3068 RMK AO1 SLP500
METAR CYNL 150000Z AUTO ///// 9SM CLR M30/M34 A3068 RMK AO1 PRESRR SLP496
METAR CYNL 142300Z AUTO 29004KT 9SM CLR M30/M34 A3064 RMK AO1 PRESRR SLP482
METAR CYNL 142200Z AUTO 28006KT 9SM CLR M28/M33 A3061 RMK AO1 PRESRR SLP470
METAR CYNL 142100Z AUTO 30006KT 9SM CLR M27/M32 A3058 RMK AO1 PRESRR SLP460
SPECI CYNL 142009Z AUTO 29009KT 9SM FEW004 M28/M32 A3055 RMK AO1 SLP450
METAR CYNL 142000Z AUTO 30006KT 9SM CLR M28/M32 A3054 RMK AO1 SLP449
SPECI CYNL 141909Z AUTO 31006KT 8SM SCT004 BKN044 M29/M33 A3053 RMK AO1 PRESRR SLP445
SPECI CYNL 141906Z AUTO ///// 7SM VV004 M29/M33 A3053 RMK AO1 PRESRR SLP446
SPECI CYNL 141902Z AUTO ///// 7SM VV005 M29/M33 A3053 RMK AO1 PRESRR SLP446
METAR CYNL 141900Z AUTO ///// 7SM SCT005 OVC044 M29/M33 A3053 RMK AO1 PRESRR SLP446
SPECI CYNL 141841Z AUTO 30004KT 5SM SCT004 OVC052 M29/M33 A3051 RMK AO1 PRESRR SLP442
SPECI CYNL 141833Z AUTO 29006KT 5SM VV004 M29/M33 A3052 RMK AO1 PRESRR SLP442
SPECI CYNL 141829Z AUTO ///// 5SM FEW005 OVC054 M29/M33 A3051 RMK AO1 PRESRR SLP441
METAR CYNL 141800Z AUTO 31008KT 6SM OVC058 M29/M33 A3049 RMK AO1 PRESRR SLP433
METAR CYNL 141700Z AUTO ///// 9SM FEW068 M29/M34 A3046 RMK AO1 PRESRR SLP423
METAR CYNL 141600Z AUTO ///// 9SM FEW003 M30/M34 A3043 RMK AO1 PRESRR SLP413
SPECI CYNL 141516Z AUTO ///// 9SM SCT004 M30/M34 A3040 RMK AO1 PRESRR SLP400
SPECI CYNL 141514Z AUTO ///// 9SM SCT004 BKN028 M30/M34 A3040 RMK AO1 PRESRR SLP399
METAR CYNL 141500Z AUTO ///// 6SM VV004 M30/M34 A3039 RMK AO1 PRESRR SLP397
SPECI CYNL 141458Z AUTO ///// 6SM VV004 M30/M34 A3039 RMK AO1 PRESRR SLP396
SPECI CYNL 141418Z AUTO ///// 7SM VV006 M30/M34 A3037 RMK AO1 PRESRR SLP389
METAR CYNL 141400Z AUTO ///// 7SM VV003 M30/M34 A3036 RMK AO1 PRESRR SLP385
METAR CYNL 141300Z AUTO ///// 9SM BKN004 OVC034 M29/M33 A3032 RMK AO1 PRESRR SLP370
SPECI CYNL 141232Z AUTO ///// 9SM VV004 M29/M33 A3032 RMK AO1 PRESRR SLP370
METAR CYNL 141200Z AUTO ///// 9SM SCT005 OVC037 M29/M33 A3029 RMK AO1 PRESRR SLP361
SPECI CYNL 141155Z AUTO ///// 9SM SCT005 OVC035 M29/M33 A3029 RMK AO1 PRESRR SLP358
SPECI CYNL 141147Z AUTO ///// 9SM VV005 M29/M33 A3028 RMK AO1 PRESRR SLP355
SPECI CYNL 141143Z AUTO ///// 9SM FEW006 OVC034 M29/M33 A3028 RMK AO1 PRESRR SLP355
METAR CYNL 141100Z AUTO ///// 9SM OVC036 M29/M34 A3026 RMK AO1 PRESRR SLP348
METAR CYNL 141000Z AUTO ///// 9SM FEW003 BKN042 M31/M35 A3022 RMK AO1 PRESRR SLP334
SPECI CYNL 140931Z AUTO ///// 7SM SCT003 M31/M35 A3021 RMK AO1 PRESRR SLP330
METAR CYNL 140900Z AUTO ///// 3SM VV003 M31/M35 A3020 RMK AO1 PRESRR SLP327
SPECI CYNL 140833Z AUTO ///// 3SM VV003 M31/M35 A3018 RMK AO1 SLP321
SPECI CYNL 140824Z AUTO ///// 2 1/2SM VV004 M31/M35 A3018 RMK AO1 SLP321
SPECI CYNL 140823Z AUTO ///// 3SM VV004 M31/M35 A3018 RMK AO1 SLP321
SPECI CYNL 140811Z AUTO ///// 6SM SCT002 M31/M35 A3017 RMK AO1 SLP317
SPECI CYNL 140806Z AUTO ///// 5SM VV002 M31/M35 A3016 RMK AO1 SLP315
SPECI CYNL 140801Z AUTO ///// 7SM FEW002 M31/M35 A3016 RMK AO1 SLP314
METAR CYNL 140800Z AUTO ///// 7SM CLR M31/M35 A3016 RMK AO1 SLP314
METAR CYNL 140700Z AUTO ///// 9SM CLR M31/M36 A3014 RMK AO1 PRESRR SLP309
SPECI CYNL 140616Z AUTO ///// 7SM SCT002 M31/M35 A3012 RMK AO1 PRESRR SLP303
SPECI CYNL 140615Z AUTO ///// 7SM VV002 M31/M35 A3012 RMK AO1 PRESRR SLP304
SPECI CYNL 140609Z AUTO ///// 7SM FEW002 M31/M35 A3012 RMK AO1 PRESRR SLP303
METAR CYNL 140600Z AUTO ///// 9SM CLR M31/M35 A3012 RMK AO1 PRESRR SLP300
METAR CYNL 140500Z AUTO ///// 9SM CLR M30/M34 A3008 RMK AO1 PRESRR SLP289
METAR CYNL 140400Z AUTO ///// 9SM FEW002 M29/M33 A3005 RMK AO1 SLP285
SPECI CYNL 140348Z AUTO ///// 9SM SCT002 M29/M33 A3005 RMK AO1 SLP290
SPECI CYNL 140306Z AUTO ///// 9SM VV002 M29/M33 A3005 RMK AO1 SLP288
METAR CYNL 140300Z AUTO ///// 9SM VV003 M29/M33 A3005 RMK AO1 SLP287
SPECI CYNL 140250Z AUTO ///// 8SM VV003 M29/M33 A3005 RMK AO1 SLP286
SPECI CYNL 140237Z AUTO ///// 9SM SCT003 M29/M33 A3005 RMK AO1 SLP285
SPECI CYNL 140235Z AUTO ///// 9SM SCT003 BKN026 M29/M33 A3004 RMK AO1 SLP284
SPECI CYNL 140230Z AUTO ///// 8SM VV003 M29/M33 A3004 RMK AO1 SLP283
SPECI CYNL 140225Z AUTO ///// 9SM SCT003 BKN025 M29/M33 A3004 RMK AO1 SLP284
SPECI CYNL 140223Z AUTO ///// 9SM VV003 M29/M33 A3004 RMK AO1 SLP284
SPECI CYNL 140218Z AUTO ///// 9SM FEW002 BKN025 M29/M33 A3004 RMK AO1 SLP283
SPECI CYNL 140201Z AUTO ///// 9SM BKN025 M29/M33 A3003 RMK AO1 SLP280
METAR CYNL 140200Z AUTO ///// 9SM SCT025 M29/M33 A3003 RMK AO1 SLP280
METAR CYNL 140100Z AUTO ///// 9SM CLR M29/M33 A3002 RMK AO1 SLP278
METAR CYNL 140000Z AUTO ///// 9SM CLR M27/M31 A3001 RMK AO1 SLP274
SPECI CYNL 132317Z AUTO ///// 9SM SCT026 M25/M29 A3001 RMK AO1 SLP267
METAR CYNL 132300Z AUTO ///// 9SM OVC026 M25/M29 A3000 RMK AO1 SLP266
METAR CYNL 132200Z AUTO ///// 9SM OVC026 M25/M28 A2999 RMK AO1 SLP260
METAR CYNL 132100Z AUTO ///// 9SM OVC027 M25/M29 A3000 RMK AO1 SLP261
METAR CYNL 132000Z AUTO 00000KT 9SM OVC026 M26/M30 A2998 RMK AO1 SLP256
SPECI CYNL 131927Z AUTO ///// 9SM BKN029 OVC035 M27/M31 A2998 RMK AO1 SLP258
METAR CYNL 131900Z AUTO ///// 9SM BKN036 M27/M31 A2999 RMK AO1 SLP261
METAR CYNL 131800Z AUTO 00000KT 9SM CLR M29/M33 A3001 RMK AO1 SLP270
METAR CYNL 131700Z AUTO ///// 9SM CLR M33/M37 A3003 RMK AO1 SLP278
SPECI CYNL 131656Z AUTO 00000KT 3SM CLR M33/M37 A3003 RMK AO1 PRESFR SLP278
SPECI CYNL 131655Z AUTO ///// 1 3/4SM CLR M32/M37 A3003 RMK AO1 PRESFR SLP278
SPECI CYNL 131654Z AUTO ///// 1 1/4SM CLR M32/M37 A3003 RMK AO1 PRESFR SLP279
SPECI CYNL 131652Z AUTO ///// 1 3/4SM CLR M33/M37 A3003 RMK AO1 PRESFR SLP279
SPECI CYNL 131651Z AUTO ///// 2 1/2SM CLR M33/M37 A3003 RMK AO1 PRESFR SLP280
SPECI CYNL 131618Z AUTO 20003KT 6SM CLR M35/M40 A3004 RMK AO1 PRESFR SLP287
SPECI CYNL 131617Z AUTO 20003KT 2 1/2SM CLR M35/M40 A3004 RMK AO1 PRESFR SLP287
SPECI CYNL 131616Z AUTO 20002KT 1 1/2SM CLR M35/M40 A3004 RMK AO1 PRESFR SLP288
SPECI CYNL 131612Z AUTO 22003KT 1 1/4SM CLR M36/M41 A3004 RMK AO1 PRESFR SLP288
SPECI CYNL 131611Z AUTO 22002KT 1 1/2SM CLR M36/M41 A3004 RMK AO1 PRESFR SLP288
SPECI CYNL 131605Z AUTO 22003KT 2 1/2SM CLR M36/M41 A3004 RMK AO1 PRESFR SLP288
METAR CYNL 131600Z AUTO 23004KT 9SM CLR M36/M41 A3005 RMK AO1 PRESFR SLP290
SPECI CYNL 131524Z AUTO 21002KT 3SM FEW036 M36/M41 A3006 RMK AO1 PRESFR SLP293
SPECI CYNL 131523Z AUTO 21002KT 2SM FEW037 M36/M41 A3006 RMK AO1 PRESFR SLP294
SPECI CYNL 131520Z AUTO ///// 1 3/4SM FEW037 M36/M41 A3006 RMK AO1 PRESFR SLP294
SPECI CYNL 131518Z AUTO ///// 2SM FEW037 M36/M41 A3006 RMK AO1 PRESFR SLP293
SPECI CYNL 131513Z AUTO 20002KT 1 3/4SM FEW037 M36/M41 A3006 RMK AO1 PRESFR SLP293
SPECI CYNL 131512Z AUTO 20002KT 2SM FEW037 M36/M41 A3006 RMK AO1 PRESFR SLP293
METAR CYNL 131500Z AUTO 22004KT 9SM SCT037 M35/M40 A3007 RMK AO1 PRESFR SLP295
SPECI CYNL 131435Z AUTO 20003KT 3SM CLR M35/M40 A3008 RMK AO1 PRESFR SLP297
SPECI CYNL 131434Z AUTO 20003KT 2 1/2SM CLR M35/M40 A3008 RMK AO1 PRESFR SLP297
METAR CYNL 131400Z AUTO 14003KT 9SM CLR M38/M43 A3009 RMK AO1 PRESFR SLP304
SPECI CYNL 131332Z AUTO 00000KT 6SM CLR M37/M42 A3010 RMK AO1 PRESFR SLP307
SPECI CYNL 131331Z AUTO 00000KT 1 3/4SM CLR M37/M42 A3011 RMK AO1 PRESFR SLP307
SPECI CYNL 131330Z AUTO 00000KT 1SM CLR M37/M42 A3011 RMK AO1 PRESFR SLP307
SPECI CYNL 131328Z AUTO 00000KT 1 1/4SM CLR M37/M42 A3011 RMK AO1 PRESFR SLP307
SPECI CYNL 131325Z AUTO ///// 2 1/2SM CLR M37/M42 A3011 RMK AO1 PRESFR SLP307
METAR CYNL 131300Z AUTO ///// 9SM CLR M37/M42 A3013 RMK AO1 PRESFR SLP313
METAR CYNL 131200Z AUTO 21003KT 9SM CLR M36/M41 A3015 RMK AO1 PRESFR SLP321
METAR CYNL 131100Z AUTO 00000KT 9SM CLR M35/M40 A3019 RMK AO1 PRESFR SLP331
METAR CYNL 131000Z AUTO 19003KT 9SM CLR M34/M38 A3021 RMK AO1 PRESFR SLP336
METAR CYNL 130900Z AUTO 22003KT 9SM CLR M33/M37 A3024 RMK AO1 PRESFR SLP344
METAR CYNL 130800Z AUTO 24002KT 9SM CLR M33/M37 A3026 RMK AO1 PRESFR SLP352
METAR CYNL 130700Z AUTO 24003KT 9SM CLR M33/M37 A3028 RMK AO1 SLP359
METAR CYNL 130600Z AUTO 25004KT 9SM CLR M31/M36 A3030 RMK AO1 SLP365
METAR CYNL 130500Z AUTO 25004KT 9SM CLR M31/M35 A3031 RMK AO1 SLP367
METAR CYNL 130400Z AUTO ///// 9SM CLR M30/M35 A3033 RMK AO1 PRESFR SLP376
METAR CYNL 130300Z AUTO 24002KT 9SM CLR M29/M33 A3035 RMK AO1 SLP383
METAR CYNL 130200Z AUTO 27005KT 9SM CLR M28/M32 A3037 RMK AO1 SLP388
METAR CYNL 130100Z AUTO ///// 9SM CLR M27/M31 A3037 RMK AO1 SLP389
METAR CYNL 130000Z AUTO ///// 9SM CLR M27/M31 A3037 RMK AO1 SLP388
METAR CYNL 122300Z AUTO 27006KT 9SM CLR M27/M31 A3037 RMK AO1 SLP387
METAR CYNL 122200Z AUTO ///// 9SM CLR M26/M30 A3036 RMK AO1 PRESRR SLP385
METAR CYNL 122100Z AUTO 28011KT 9SM CLR M26/M30 A3033 RMK AO1 SLP375
METAR CYNL 122000Z AUTO 29009KT 9SM CLR M26/M30 A3033 RMK AO1 SLP372
SPECI CYNL 121902Z AUTO 29011G18KT 5SM SCT004 M27/M31 A3032 RMK AO1 SLP372
METAR CYNL 121900Z AUTO 28010G18KT 4SM VV004 M27/M31 A3032 RMK AO1 SLP371
SPECI CYNL 121838Z AUTO 28011KT 8SM SCT004 M27/M31 A3031 RMK AO1 SLP371
SPECI CYNL 121822Z AUTO 28009G17KT 5SM VV004 M28/M32 A3031 RMK AO1 SLP371
SPECI CYNL 121818Z AUTO 28010KT 5SM FEW004 M28/M32 A3031 RMK AO1 SLP371
METAR CYNL 121800Z AUTO 28009G17KT 9SM CLR M28/M32 A3031 RMK AO1 SLP372
METAR CYNL 121700Z AUTO 28011G18KT 5SM FEW004 M29/M34 A3031 RMK AO1 PRESRR SLP373
SPECI CYNL 121642Z AUTO ///// 4SM FEW004 M30/M34 A3030 RMK AO1 PRESRR SLP371
METAR CYNL 121600Z AUTO ///// 5SM CLR M30/M35 A3029 RMK AO1 PRESRR SLP367
METAR CYNL 121500Z AUTO ///// 4SM CLR M31/M35 A3026 RMK AO1 SLP357
SPECI CYNL 121418Z AUTO ///// 4SM SCT004 M31/M35 A3025 RMK AO1 SLP354
SPECI CYNL 121417Z AUTO ///// 3SM VV004 M31/M35 A3025 RMK AO1 SLP354
SPECI CYNL 121415Z AUTO ///// 4SM SCT004 M31/M35 A3025 RMK AO1 SLP354
SPECI CYNL 121414Z AUTO ///// 4SM VV004 M31/M35 A3025 RMK AO1 SLP354
SPECI CYNL 121407Z AUTO ///// 5SM FEW004 M31/M35 A3025 RMK AO1 SLP354
METAR CYNL 121400Z AUTO ///// 6SM CLR M31/M35 A3025 RMK AO1 SLP354
METAR CYNL 121300Z AUTO ///// 3SM SCT004 M31/M36 A3024 RMK AO1 PRESRR SLP351
SPECI CYNL 121254Z AUTO ///// 3SM SCT004 M31/M36 A3024 RMK AO1 SLP350
SPECI CYNL 121215Z AUTO ///// 3SM VV004 M32/M36 A3023 RMK AO1 SLP344
SPECI CYNL 121202Z AUTO ///// 2 1/2SM VV004 M32/M36 A3022 RMK AO1 SLP344
METAR CYNL 121200Z AUTO ///// 3SM VV004 M32/M36 A3022 RMK AO1 SLP344
SPECI CYNL 121150Z AUTO ///// 3SM VV004 M32/M36 A3021 RMK AO1 PRESRR SLP341
SPECI CYNL 121134Z AUTO ///// 2 1/2SM VV004 M32/M36 A3021 RMK AO1 PRESRR SLP340
SPECI CYNL 121133Z AUTO ///// 3SM VV004 M32/M36 A3021 RMK AO1 PRESRR SLP340
SPECI CYNL 121130Z AUTO ///// 2 1/2SM BKN004 M32/M36 A3021 RMK AO1 PRESRR SLP339
SPECI CYNL 121121Z AUTO ///// 3SM BKN004 M32/M36 A3021 RMK AO1 PRESRR SLP339
METAR CYNL 121100Z AUTO ///// 2 1/2SM VV004 M32/M36 A3020 RMK AO1 PRESRR SLP337
SPECI CYNL 121059Z AUTO ///// 2 1/2SM VV004 M32/M36 A3020 RMK AO1 PRESRR SLP337
SPECI CYNL 121058Z AUTO ///// 3SM VV004 M32/M36 A3020 RMK AO1 PRESRR SLP337
SPECI CYNL 121057Z AUTO ///// 2 1/2SM VV004 M32/M36 A3020 RMK AO1 SLP337
SPECI CYNL 121051Z AUTO ///// 3SM FEW004 M32/M36 A3020 RMK AO1 SLP337
METAR CYNL 121000Z AUTO ///// 3SM CLR M32/M36 A3018 RMK AO1 SLP329
SPECI CYNL 120904Z AUTO ///// 5SM FEW004 M32/M36 A3018 RMK AO1 SLP327
METAR CYNL 120900Z AUTO ///// 5SM CLR M32/M36 A3018 RMK AO1 SLP327
SPECI CYNL 120837Z AUTO ///// 6SM SCT004 M32/M36 A3017 RMK AO1 SLP323
SPECI CYNL 120827Z AUTO ///// 3SM VV004 M32/M36 A3016 RMK AO1 SLP322
SPECI CYNL 120824Z AUTO ///// 2 1/2SM VV004 M32/M36 A3016 RMK AO1 SLP321
SPECI CYNL 120823Z AUTO ///// 3SM VV004 M32/M36 A3016 RMK AO1 SLP321
SPECI CYNL 120820Z AUTO ///// 3SM VV005 M32/M36 A3016 RMK AO1 SLP321
SPECI CYNL 120814Z AUTO ///// 6SM FEW005 M32/M36 A3016 RMK AO1 SLP320
METAR CYNL 120800Z AUTO ///// 8SM CLR M32/M36 A3016 RMK AO1 SLP319
SPECI CYNL 120713Z AUTO ///// 5SM SCT005 M32/M36 A3015 RMK AO1 SLP317
METAR CYNL 120700Z AUTO ///// 4SM VV005 M32/M36 A3015 RMK AO1 SLP318
SPECI CYNL 120642Z AUTO ///// 3SM VV006 M32/M36 A3015 RMK AO1 SLP318
SPECI CYNL 120641Z AUTO ///// 2 1/2SM VV006 M32/M36 A3015 RMK AO1 SLP318
METAR CYNL 120600Z AUTO ///// 3SM VV007 M32/M36 A3014 RMK AO1 SLP314
SPECI CYNL 120556Z AUTO ///// 3SM VV007 M32/M36 A3013 RMK AO1 SLP315
SPECI CYNL 120554Z AUTO ///// 2 1/2SM VV007 M32/M36 A3013 RMK AO1 SLP314
SPECI CYNL 120519Z AUTO ///// 4SM VV005 M32/M36 A3012 RMK AO1 SLP311
SPECI CYNL 120514Z AUTO ///// 4SM FEW005 M32/M36 A3013 RMK AO1 SLP312
METAR CYNL 120500Z AUTO ///// 6SM CLR M32/M36 A3012 RMK AO1 SLP310
SPECI CYNL 120402Z AUTO ///// 8SM SCT006 M31/M36 A3011 RMK AO1 SLP308
METAR CYNL 120400Z AUTO ///// 8SM BKN006 M31/M36 A3011 RMK AO1 SLP307
SPECI CYNL 120332Z AUTO ///// 5SM VV006 M31/M36 A3011 RMK AO1 SLP306
SPECI CYNL 120327Z AUTO ///// 7SM FEW007 M31/M35 A3011 RMK AO1 SLP306
METAR CYNL 120300Z AUTO ///// 9SM CLR M31/M35 A3010 RMK AO1 SLP305
SPECI CYNL 120231Z AUTO ///// 5SM FEW004 SCT007 M31/M35 A3010 RMK AO1 SLP305
SPECI CYNL 120227Z AUTO ///// 4SM BKN006 M31/M35 A3010 RMK AO1 SLP305
SPECI CYNL 120221Z AUTO ///// 6SM FEW004 SCT007 M31/M35 A3011 RMK AO1 SLP307
SPECI CYNL 120216Z AUTO ///// 3SM VV006 M31/M35 A3011 RMK AO1 SLP307
SPECI CYNL 120214Z AUTO ///// 2 1/2SM VV006 M31/M35 A3011 RMK AO1 SLP306
SPECI CYNL 120212Z AUTO ///// 2 1/2SM FEW004 SCT007 M31/M35 A3010 RMK AO1 SLP306
METAR CYNL 120200Z AUTO ///// 3SM SCT005 M31/M35 A3011 RMK AO1 SLP306
SPECI CYNL 120153Z AUTO ///// 4SM FEW006 SCT012 M31/M35 A3011 RMK AO1 SLP306
SPECI CYNL 120152Z AUTO ///// 4SM VV009 M31/M35 A3010 RMK AO1 SLP306
SPECI CYNL 120144Z AUTO ///// 3SM FEW005 M31/M35 A3010 RMK AO1 SLP305
SPECI CYNL 120143Z AUTO ///// 2 1/2SM FEW005 M31/M35 A3010 RMK AO1 SLP305
SPECI CYNL 120142Z AUTO ///// 3SM FEW005 M31/M35 A3010 RMK AO1 SLP305
METAR CYNL 120100Z AUTO ///// 9SM CLR M30/M35 A3010 RMK AO1 SLP304
METAR CYNL 120000Z AUTO ///// 9SM CLR M30/M35 A3010 RMK AO1 SLP304
METAR CYNL 112300Z AUTO ///// 9SM CLR M31/M35 A3009 RMK AO1 SLP301
METAR CYNL 112200Z AUTO ///// 9SM FEW008 M30/M34 A3009 RMK AO1 SLP300
SPECI CYNL 112159Z AUTO ///// 9SM FEW008 M30/M34 A3009 RMK AO1 SLP300
METAR CYNL 112100Z AUTO 28008KT 9SM CLR M29/M34 A3008 RMK AO1 SLP295
METAR CYNL 112000Z AUTO 27010KT 9SM CLR M30/M34 A3009 RMK AO1 SLP300
METAR CYNL 111900Z AUTO 28011G18KT 6SM CLR M31/M35 A3010 RMK AO1 SLP303
METAR CYNL 111800Z AUTO 28009KT 7SM CLR M31/M36 A3012 RMK AO1 SLP309
METAR CYNL 111700Z AUTO ///// 5SM FEW005 M32/M37 A3012 RMK AO1 SLP311
SPECI CYNL 111656Z AUTO ///// 5SM FEW005 M32/M37 A3011 RMK AO1 SLP311
METAR CYNL 111600Z AUTO ///// 8SM CLR M33/M37 A3011 RMK AO1 SLP310
METAR CYNL 111500Z AUTO ///// 9SM CLR M33/M38 A3011 RMK AO1 SLP309
METAR CYNL 111400Z AUTO ///// 9SM CLR M33/M38 A3011 RMK AO1 SLP309
METAR CYNL 111300Z AUTO 27009KT 9SM CLR M33/M38 A3011 RMK AO1 SLP310
METAR CYNL 111200Z AUTO 27008KT 9SM CLR M33/M38 A3012 RMK AO1 SLP310
METAR CYNL 111100Z AUTO ///// 9SM CLR M33/M38 A3011 RMK AO1 SLP311
METAR CYNL 111000Z AUTO ///// 9SM FEW007 M33/M38 A3012 RMK AO1 SLP312
SPECI CYNL 110941Z AUTO ///// 8SM SCT007 M33/M38 A3012 RMK AO1 SLP312
SPECI CYNL 110932Z AUTO ///// 6SM VV006 M33/M38 A3012 RMK AO1 SLP312
SPECI CYNL 110927Z AUTO ///// 5SM FEW007 M33/M38 A3012 RMK AO1 SLP312
METAR CYNL 110900Z AUTO ///// 9SM CLR M33/M38 A3012 RMK AO1 SLP311
METAR CYNL 110800Z AUTO 27008KT 9SM CLR M33/M38 A3010 RMK AO1 SLP306
METAR CYNL 110700Z AUTO ///// 7SM CLR M33/M37 A3010 RMK AO1 SLP304
METAR CYNL 110600Z AUTO ///// 6SM CLR M33/M37 A3009 RMK AO1 SLP303
METAR CYNL 110500Z AUTO ///// 8SM CLR M33/M37 A3009 RMK AO1 SLP303
SPECI CYNL 110414Z AUTO ///// 5SM FEW005 M33/M37 A3009 RMK AO1 SLP304
METAR CYNL 110400Z AUTO 28008G15KT 9SM CLR M33/M37 A3009 RMK AO1 SLP303
METAR CYNL 110300Z AUTO ///// 8SM CLR M32/M37 A3008 RMK AO1 SLP300
METAR CYNL 110200Z AUTO 28005KT 9SM CLR M32/M37 A3008 RMK AO1 SLP299
METAR CYNL 110100Z AUTO ///// 9SM CLR M32/M36 A3007 RMK AO1 SLP295
METAR CYNL 110000Z AUTO 26005KT 9SM CLR M33/M37 A3007 RMK AO1 SLP295
METAR CYNL 102300Z AUTO 26006KT 9SM CLR M33/M37 A3007 RMK AO1 SLP295
SPECI CYNL 102234Z AUTO 25006KT 3SM FEW003 M33/M37 A3007 RMK AO1 SLP293
METAR CYNL 102200Z AUTO ///// 7SM CLR M33/M37 A3006 RMK AO1 SLP289
METAR CYNL 102100Z AUTO ///// 9SM CLR M32/M36 A3004 RMK AO1 SLP281
METAR CYNL 102000Z AUTO ///// 6SM CLR M32/M36 A3004 RMK AO1 SLP279
METAR CYNL 101900Z AUTO ///// 6SM CLR M32/M37 A3004 RMK AO1 SLP277
SPECI CYNL 101809Z AUTO ///// 5SM FEW004 M32/M37 A3003 RMK AO1 SLP276
METAR CYNL 101800Z AUTO ///// 5SM CLR M33/M37 A3003 RMK AO1 SLP275
METAR CYNL 101700Z AUTO ///// 9SM CLR M33/M38 A3002 RMK AO1 SLP273
METAR CYNL 101600Z AUTO 27006KT 9SM CLR M34/M38 A3001 RMK AO1 PRESRR SLP270
METAR CYNL 101500Z AUTO 28005KT 8SM CLR M33/M38 A2999 RMK AO1 SLP262
METAR CYNL 101400Z AUTO 29006KT 9SM CLR M33/M38 A2998 RMK AO1 SLP258
METAR CYNL 101300Z AUTO 29006KT 5SM CLR M33/M37 A2997 RMK AO1 SLP254
METAR CYNL 101200Z AUTO ///// 9SM CLR M32/M36 A2996 RMK AO1 SLP248
METAR CYNL 101100Z AUTO ///// 9SM CLR M32/M36 A2996 RMK AO1 SLP246
METAR CYNL 101000Z AUTO ///// 9SM CLR M31/M35 A2994 RMK AO1 SLP241
METAR CYNL 100900Z AUTO ///// 9SM CLR M30/M34 A2994 RMK AO1 SLP237
METAR CYNL 100800Z AUTO ///// 9SM CLR M29/M33 A2993 RMK AO1 SLP233
METAR CYNL 100700Z AUTO ///// 9SM CLR M29/M33 A2993 RMK AO1 SLP231
METAR CYNL 100600Z AUTO ///// 9SM CLR M28/M32 A2993 RMK AO1 SLP231
SPECI CYNL 100516Z AUTO ///// 6SM FEW008 SCT014 M28/M32 A2992 RMK AO1 SLP228
SPECI CYNL 100515Z AUTO ///// 6SM FEW008 BKN014 M28/M32 A2992 RMK AO1 SLP228
SPECI CYNL 100514Z AUTO ///// 6SM FEW008 SCT014 M28/M32 A2992 RMK AO1 SLP227
SPECI CYNL 100513Z AUTO ///// 6SM FEW008 BKN014 M28/M32 A2992 RMK AO1 SLP227
SPECI CYNL 100501Z AUTO ///// 5SM VV012 M28/M32 A2992 RMK AO1 SLP226
METAR CYNL 100500Z AUTO ///// 5SM FEW009 M28/M32 A2992 RMK AO1 SLP227
SPECI CYNL 100418Z AUTO ///// 9SM SCT007 M27/M31 A2991 RMK AO1 SLP227
SPECI CYNL 100411Z AUTO ///// 7SM SCT008 BKN014 M27/M31 A2991 RMK AO1 SLP227
SPECI CYNL 100401Z AUTO ///// 5SM VV009 M27/M31 A2991 RMK AO1 SLP227
METAR CYNL 100400Z AUTO ///// 5SM VV010 M27/M31 A2991 RMK AO1 SLP227
SPECI CYNL 100349Z AUTO ///// 3SM VV014 M27/M31 A2991 RMK AO1 SLP230
SPECI CYNL 100347Z AUTO ///// 3SM VV015 M27/M31 A2991 RMK AO1 SLP230
SPECI CYNL 100341Z AUTO ///// 2 1/2SM VV017 M27/M31 A2992 RMK AO1 SLP231
SPECI CYNL 100307Z AUTO ///// 5SM VV023 M27/M31 A2991 RMK AO1 SLP229
METAR CYNL 100300Z AUTO ///// 6SM CLR M27/M31 A2991 RMK AO1 SLP228
SPECI CYNL 100214Z AUTO ///// 6SM SCT007 M27/M31 A2991 RMK AO1 PRESFR SLP226
METAR CYNL 100200Z AUTO ///// 6SM VV007 M27/M31 A2991 RMK AO1 PRESFR SLP227
SPECI CYNL 100152Z AUTO ///// 3SM VV008 M27/M31 A2991 RMK AO1 SLP226
SPECI CYNL 100150Z AUTO ///// 2 1/2SM VV008 M27/M31 A2991 RMK AO1 SLP227
SPECI CYNL 100148Z AUTO ///// 3SM VV009 M27/M31 A2991 RMK AO1 SLP227
SPECI CYNL 100140Z AUTO ///// 5SM VV014 M27/M31 A2991 RMK AO1 SLP228
SPECI CYNL 100122Z AUTO ///// 6SM FEW006 SCT013 BKN024 M27/M31 A2992 RMK AO1 SLP230
SPECI CYNL 100114Z AUTO ///// 6SM FEW006 SCT014 M27/M31 A2992 RMK AO1 SLP230
SPECI CYNL 100111Z AUTO ///// 7SM FEW007 SCT010 BKN020 M27/M31 A2992 RMK AO1 SLP231
SPECI CYNL 100107Z AUTO ///// 7SM FEW007 SCT010 BKN014 M27/M31 A2992 RMK AO1 SLP231
SPECI CYNL 100104Z AUTO ///// 6SM VV009 M27/M31 A2993 RMK AO1 SLP232
METAR CYNL 100100Z AUTO ///// 5SM VV012 M27/M31 A2993 RMK AO1 SLP233
SPECI CYNL 100058Z AUTO ///// 5SM VV013 M27/M31 A2993 RMK AO1 SLP232
SPECI CYNL 100051Z AUTO ///// 5SM VV015 M27/M31 A2993 RMK AO1 SLP232
SPECI CYNL 100048Z AUTO ///// 4SM VV011 M27/M31 A2993 RMK AO1 SLP232
SPECI CYNL 100044Z AUTO ///// 6SM FEW008 M27/M31 A2993 RMK AO1 SLP232
METAR CYNL 100000Z AUTO ///// 9SM CLR M27/M31 A2993 RMK AO1 SLP232
METAR CYNL 092300Z AUTO 00000KT 9SM CLR M27/M31 A2993 RMK AO1 SLP233
METAR CYNL 092200Z AUTO ///// 9SM CLR M27/M31 A2994 RMK AO1 SLP234
METAR CYNL 092100Z AUTO ///// 9SM CLR M26/M30 A2993 RMK AO1 SLP231
METAR CYNL 092000Z AUTO ///// 9SM CLR M27/M31 A2994 RMK AO1 SLP235
METAR CYNL 091900Z AUTO ///// 9SM CLR M27/M31 A2996 RMK AO1 PRESFR SLP239
METAR CYNL 091800Z AUTO ///// 9SM CLR M27/M31 A2999 RMK AO1 SLP247
METAR CYNL 091700Z AUTO ///// 9SM CLR M29/M33 A2998 RMK AO1 SLP246
METAR CYNL 091600Z AUTO 30006KT 9SM CLR M30/M34 A2999 RMK AO1 SLP250
METAR CYNL 091500Z AUTO 33002KT 9SM CLR M30/M34 A2998 RMK AO1 SLP244
METAR CYNL 091400Z AUTO 31004KT 9SM CLR M29/M33 A2999 RMK AO1 SLP245
METAR CYNL 091300Z AUTO ///// 9SM CLR M28/M32 A3000 RMK AO1 SLP246
METAR CYNL 091200Z AUTO ///// 9SM CLR M28/M32 A2999 RMK AO1 SLP243
METAR CYNL 091100Z AUTO ///// 9SM CLR M28/M32 A3000 RMK AO1 SLP244
METAR CYNL 091000Z AUTO ///// 9SM CLR M28/M31 A2999 RMK AO1 SLP237
METAR CYNL 090900Z AUTO ///// 9SM CLR M27/M31 A2999 RMK AO1 PRESRR SLP236
METAR CYNL 090800Z AUTO ///// 9SM CLR M26/M30 A2997 RMK AO1 SLP227
METAR CYNL 090700Z AUTO ///// 9SM CLR M25/M29 A2995 RMK AO1 SLP220
METAR CYNL 090600Z AUTO 33006KT 9SM CLR M24/M28 A2995 RMK AO1 PRESRR SLP218
METAR CYNL 090500Z AUTO 31006KT 9SM CLR M23/M26 A2993 RMK AO1 PRESRR SLP210
METAR CYNL 090400Z AUTO 32005KT 9SM OVC034 M22/M25 A2989 RMK AO1 SLP199
METAR CYNL 090300Z AUTO 33005KT 9SM BKN130 M21/M24 A2988 RMK AO1 PRESRR SLP195
SPECI CYNL 090237Z AUTO 33007KT 9SM SCT011 BKN130 M20/M23 A2988 RMK AO1 PRESRR SLP192
SPECI CYNL 090229Z AUTO 32007KT 9SM BKN011 BKN130 M20/M23 A2987 RMK AO1 PRESRR SLP191
METAR CYNL 090200Z AUTO 33008KT 9SM FEW011 BKN130 M20/M23 A2986 RMK AO1 PRESRR SLP185
SPECI CYNL 090102Z AUTO 34007KT 9SM FEW006 SCT009 M19/M22 A2984 RMK AO1 SLP177
METAR CYNL 090100Z AUTO 33006KT 9SM FEW006 SCT009 BKN011 M19/M22 A2983 RMK AO1 SLP176
SPECI CYNL 090059Z AUTO 33006KT 9SM FEW006 SCT009 BKN012 M19/M22 A2983 RMK AO1 SLP176
SPECI CYNL 090051Z AUTO ///// 4SM VV009 M19/M22 A2983 RMK AO1 PRESRR SLP176
SPECI CYNL 090043Z AUTO 34009KT 4SM VV010 M19/M22 A2983 RMK AO1 PRESRR SLP176
SPECI CYNL 090038Z AUTO 34007KT 4SM VV009 M19/M22 A2983 RMK AO1 PRESRR SLP174
SPECI CYNL 090033Z AUTO 34010KT 3SM VV014 M19/M22 A2983 RMK AO1 PRESRR SLP174
SPECI CYNL 090032Z AUTO 34010KT 3SM VV015 M19/M22 A2983 RMK AO1 PRESRR SLP174
SPECI CYNL 090024Z AUTO ///// 2SM VV016 M19/M22 A2983 RMK AO1 PRESRR SLP173
SPECI CYNL 090023Z AUTO ///// 1 3/4SM VV016 M19/M22 A2983 RMK AO1 PRESRR SLP173
SPECI CYNL 090006Z AUTO ///// 2 1/2SM VV015 M19/M22 A2982 RMK AO1 PRESRR SLP171
METAR CYNL 090000Z AUTO ///// 2SM VV010 M18/M21 A2982 RMK AO1 PRESRR SLP170
SPECI CYNL 082344Z AUTO 33011KT 2 1/2SM VV012 M18/M21 A2981 RMK AO1 PRESRR SLP166
SPECI CYNL 082342Z AUTO 32010KT 3SM VV014 M18/M21 A2981 RMK AO1 PRESRR SLP166
SPECI CYNL 082337Z AUTO 32008KT 4SM VV015 M18/M21 A2980 RMK AO1 PRESRR SLP164
SPECI CYNL 082330Z AUTO 31008KT 3SM VV012 M18/M21 A2980 RMK AO1 PRESRR SLP163
SPECI CYNL 082319Z AUTO 31005KT 2 1/2SM VV012 M18/M20 A2979 RMK AO1 PRESRR SLP161
SPECI CYNL 082315Z AUTO 30005KT 3SM VV011 M18/M20 A2979 RMK AO1 PRESRR SLP160
SPECI CYNL 082304Z AUTO 32005KT 2SM VV012 M17/M20 A2979 RMK AO1 PRESRR SLP158
SPECI CYNL 082303Z AUTO 32004KT 1 3/4SM VV012 M17/M20 A2979 RMK AO1 PRESRR SLP158
SPECI CYNL 082302Z AUTO 32004KT 2SM VV013 M17/M20 A2979 RMK AO1 PRESRR SLP157
SPECI CYNL 082301Z AUTO 33005KT 1 3/4SM VV014 M17/M20 A2979 RMK AO1 PRESRR SLP157
METAR CYNL 082300Z AUTO 32005KT 1 3/4SM VV015 M17/M20 A2978 RMK AO1 PRESRR SLP157
SPECI CYNL 082258Z AUTO 33004KT 1 3/4SM VV017 M17/M20 A2978 RMK AO1 PRESRR SLP158
SPECI CYNL 082253Z AUTO ///// 2 1/2SM VV022 M17/M20 A2979 RMK AO1 SLP158
SPECI CYNL 082250Z AUTO ///// 3SM VV024 M17/M20 A2979 RMK AO1 SLP158
SPECI CYNL 082243Z AUTO ///// 3SM VV026 M17/M20 A2978 RMK AO1 SLP157
SPECI CYNL 082235Z AUTO 33008KT 3SM VV019 M17/M20 A2978 RMK AO1 SLP155
SPECI CYNL 082225Z AUTO ///// 2SM VV023 M17/M19 A2977 RMK AO1 SLP151
SPECI CYNL 082223Z AUTO 32006KT 2 1/2SM VV029 M17/M19 A2977 RMK AO1 SLP151
SPECI CYNL 082222Z AUTO 32007KT 2 1/2SM VV033 M17/M19 A2977 RMK AO1 SLP151
SPECI CYNL 082218Z AUTO 31007KT 6SM VV031 M17/M19 A2977 RMK AO1 SLP152
SPECI CYNL 082216Z AUTO 31004KT 7SM VV026 M17/M19 A2977 RMK AO1 SLP153
SPECI CYNL 082203Z AUTO 33003KT 3SM VV022 M16/M19 A2976 RMK AO1 SLP148
METAR CYNL 082200Z AUTO 31003KT 2 1/2SM VV020 M16/M19 A2976 RMK AO1 SLP147
SPECI CYNL 082156Z AUTO 31004KT 2SM VV017 M16/M19 A2976 RMK AO1 SLP148
SPECI CYNL 082155Z AUTO ///// 1 3/4SM VV017 M16/M19 A2976 RMK AO1 SLP148
SPECI CYNL 082154Z AUTO ///// 2SM VV017 M16/M19 A2975 RMK AO1 SLP148
SPECI CYNL 082137Z AUTO 31006KT 1 3/4SM VV021 M16/M19 A2975 RMK AO1 SLP147
SPECI CYNL 082127Z AUTO 31005KT 2SM VV019 M16/M19 A2975 RMK AO1 SLP147
SPECI CYNL 082116Z AUTO 31002KT 1 3/4SM VV018 M16/M19 A2975 RMK AO1 SLP146
SPECI CYNL 082115Z AUTO 31003KT 2SM VV016 M16/M19 A2975 RMK AO1 SLP145
SPECI CYNL 082114Z AUTO 31003KT 1 3/4SM VV015 M16/M19 A2975 RMK AO1 SLP145
SPECI CYNL 082110Z AUTO 29003KT 1 3/4SM VV013 M16/M19 A2975 RMK AO1 SLP145
SPECI CYNL 082109Z AUTO 30003KT 2SM VV014 M16/M19 A2975 RMK AO1 SLP145
SPECI CYNL 082106Z AUTO 30004KT 2 1/2SM VV018 M16/M19 A2975 RMK AO1 SLP145
SPECI CYNL 082102Z AUTO 30003KT 4SM VV024 M16/M19 A2975 RMK AO1 SLP145
METAR CYNL 082100Z AUTO 29003KT 5SM VV026 M16/M19 A2975 RMK AO1 SLP145
SPECI CYNL 082059Z AUTO 29003KT 6SM VV025 M16/M19 A2975 RMK AO1 SLP145
SPECI CYNL 082053Z AUTO 30004KT 6SM VV015 M16/M19 A2975 RMK AO1 SLP143
SPECI CYNL 082050Z AUTO 30004KT 4SM VV014 M16/M19 A2974 RMK AO1 SLP142
SPECI CYNL 082043Z AUTO 31004KT 4SM VV018 M16/M19 A2974 RMK AO1 SLP142
SPECI CYNL 082029Z AUTO 30003KT 2 1/2SM VV023 M16/M19 A2974 RMK AO1 SLP142
SPECI CYNL 082027Z AUTO 30002KT 3SM VV024 M16/M19 A2974 RMK AO1 SLP141
SPECI CYNL 082015Z AUTO 29003KT 3SM VV025 M16/M19 A2975 RMK AO1 SLP144
SPECI CYNL 082001Z AUTO 28005KT 2SM VV016 M16/M19 A2976 RMK AO1 SLP148
METAR CYNL 082000Z AUTO 27006KT 1 3/4SM VV016 M16/M19 A2976 RMK AO1 SLP148
SPECI CYNL 081959Z AUTO 27006KT 1 3/4SM VV015 M16/M19 A2976 RMK AO1 SLP147
SPECI CYNL 081958Z AUTO 26005KT 2SM VV015 M16/M19 A2975 RMK AO1 SLP145
SPECI CYNL 081955Z AUTO 27004KT 1 3/4SM VV015 M16/M19 A2975 RMK AO1 SLP143
SPECI CYNL 081943Z AUTO 28004KT 2SM VV017 M16/M19 A2975 RMK AO1 SLP142
SPECI CYNL 081938Z AUTO 28004KT 1 3/4SM VV018 M16/M19 A2974 RMK AO1 SLP142
SPECI CYNL 081931Z AUTO 26005KT 2SM VV018 M16/M19 A2975 RMK AO1 SLP143
SPECI CYNL 081930Z AUTO 26004KT 1 3/4SM VV018 M16/M19 A2975 RMK AO1 SLP143
SPECI CYNL 081910Z AUTO 26002KT 2 1/2SM VV018 M16/M19 A2975 RMK AO1 SLP144
METAR CYNL 081900Z AUTO 26005KT 3SM VV022 M16/M19 A2976 RMK AO1 SLP147
SPECI CYNL 081859Z AUTO 26004KT 3SM VV022 M16/M19 A2976 RMK AO1 SLP146
SPECI CYNL 081855Z AUTO 26004KT 2SM VV023 M16/M19 A2976 RMK AO1 SLP147
SPECI CYNL 081854Z AUTO 26004KT 1 3/4SM VV023 M16/M19 A2976 RMK AO1 SLP147
SPECI CYNL 081852Z AUTO 26003KT 2 1/2SM VV023 M16/M19 A2976 RMK AO1 SLP147
SPECI CYNL 081851Z AUTO 26003KT 3SM VV024 M16/M19 A2976 RMK AO1 SLP146
SPECI CYNL 081841Z AUTO 27004KT 3SM VV028 M16/M19 A2976 RMK AO1 SLP146
SPECI CYNL 081838Z AUTO 28003KT 2SM VV026 M16/M19 A2976 RMK AO1 SLP146
SPECI CYNL 081837Z AUTO 28004KT 1 3/4SM VV025 M16/M19 A2976 RMK AO1 SLP146
SPECI CYNL 081830Z AUTO 27003KT 1 1/2SM VV018 M16/M19 A2976 RMK AO1 SLP147
SPECI CYNL 081824Z AUTO 27004KT 1 1/4SM VV017 M16/M19 A2976 RMK AO1 SLP147
SPECI CYNL 081822Z AUTO 27003KT 1 3/4SM VV019 M16/M19 A2976 RMK AO1 SLP147
SPECI CYNL 081820Z AUTO 27003KT 2SM VV020 M16/M19 A2976 RMK AO1 SLP147
SPECI CYNL 081806Z AUTO 24003KT 1 3/4SM VV024 M17/M19 A2975 RMK AO1 SLP144
SPECI CYNL 081804Z AUTO 24003KT 2 1/2SM VV027 M17/M19 A2975 RMK AO1 SLP144
SPECI CYNL 081802Z AUTO 23004KT 5SM VV029 M17/M19 A2975 RMK AO1 SLP144
METAR CYNL 081800Z AUTO 24005KT 6SM VV031 M17/M19 A2975 RMK AO1 SLP143
SPECI CYNL 081748Z AUTO 24002KT 9SM VV033 M17/M19 A2975 RMK AO1 SLP142
SPECI CYNL 081746Z AUTO 24003KT 9SM VV026 M17/M19 A2975 RMK AO1 SLP142
SPECI CYNL 081744Z AUTO 23002KT 8SM VV017 M17/M19 A2975 RMK AO1 SLP141
SPECI CYNL 081742Z AUTO 24003KT 5SM VV010 M17/M19 A2975 RMK AO1 SLP141
SPECI CYNL 081741Z AUTO 23002KT 3SM VV008 M17/M19 A2975 RMK AO1 SLP141
SPECI CYNL 081739Z AUTO 00000KT 2SM VV009 M17/M19 A2975 RMK AO1 SLP142
SPECI CYNL 081738Z AUTO 00000KT 1 3/4SM VV009 M17/M19 A2975 RMK AO1 SLP142
SPECI CYNL 081732Z AUTO 22002KT 1 3/4SM VV014 M17/M20 A2975 RMK AO1 SLP143
SPECI CYNL 081730Z AUTO 23003KT 2SM VV014 M17/M20 A2975 RMK AO1 SLP143
SPECI CYNL 081726Z AUTO 23004KT 2 1/2SM VV017 M17/M20 A2975 RMK AO1 SLP142
SPECI CYNL 081721Z AUTO 23005KT 8SM SCT006 BKN023 M17/M20 A2975 RMK AO1 SLP143
SPECI CYNL 081719Z AUTO 23005KT 9SM SCT006 BKN010 M17/M20 A2975 RMK AO1 SLP143
SPECI CYNL 081715Z AUTO 23005KT 3SM VV008 M17/M20 A2975 RMK AO1 SLP143
SPECI CYNL 081714Z AUTO 23005KT 2 1/2SM VV007 M17/M20 A2975 RMK AO1 SLP144
METAR CYNL 081700Z AUTO 23006KT 9SM BKN006 BKN230 M18/M20 A2975 RMK AO1 SLP144
METAR CYNL 081600Z AUTO 23005KT 9SM BKN006 M20/M23 A2975 RMK AO1 SLP148
SPECI CYNL 081522Z AUTO 19003KT 9SM SCT005 M20/M22 A2975 RMK AO1 SLP147
METAR CYNL 081500Z AUTO 24003KT 9SM OVC005 M19/M22 A2975 RMK AO1 SLP147
METAR CYNL 081400Z AUTO 24004KT 9SM OVC006 M19/M22 A2977 RMK AO1 SLP152
SPECI CYNL 081314Z AUTO 24003KT 9SM BKN008 OVC100 M19/M22 A2975 RMK AO1 SLP144
SPECI CYNL 081310Z AUTO 26003KT 9SM SCT008 BKN074 OVC098 M19/M22 A2975 RMK AO1 SLP145
METAR CYNL 081300Z AUTO 26004KT 9SM BKN008 OVC084 M19/M22 A2975 RMK AO1 SLP146
SPECI CYNL 081219Z AUTO 29005KT 9SM SCT008 OVC082 M19/M22 A2976 RMK AO1 SLP146
METAR CYNL 081200Z AUTO 28005KT 9SM OVC008 M19/M22 A2977 RMK AO1 SLP151
METAR CYNL 081100Z AUTO 28008KT 9SM OVC007 M20/M22 A2977 RMK AO1 PRESRR SLP154
SPECI CYNL 081020Z AUTO 25003KT 9SM BKN008 M21/M24 A2975 RMK AO1 SLP146
SPECI CYNL 081008Z AUTO 29004KT 9SM FEW007 M21/M24 A2974 RMK AO1 SLP144
METAR CYNL 081000Z AUTO 27004KT 9SM CLR M21/M24 A2974 RMK AO1 SLP144
METAR CYNL 080900Z AUTO 27003KT 9SM CLR M20/M23 A2975 RMK AO1 SLP143
METAR CYNL 080800Z AUTO ///// 9SM CLR M19/M22 A2974 RMK AO1 SLP136
SPECI CYNL 080720Z AUTO ///// 9SM SCT012 M19/M21 A2973 RMK AO1 PRESRR SLP132
METAR CYNL 080700Z AUTO ///// 9SM OVC012 M18/M21 A2972 RMK AO1 PRESRR SLP129
METAR CYNL 080600Z AUTO 30006KT 9SM OVC011 M18/M21 A2970 RMK AO1 PRESRR SLP121
SPECI CYNL 080535Z AUTO 31005KT 9SM BKN011 M19/M21 A2968 RMK AO1 PRESRR SLP117
METAR CYNL 080500Z AUTO ///// 9SM CLR M19/M21 A2967 RMK AO1 PRESRR SLP113
METAR CYNL 080400Z AUTO ///// 9SM CLR M18/M21 A2964 RMK AO1 SLP104
METAR CYNL 080300Z AUTO ///// 9SM FEW013 M18/M21 A2963 RMK AO1 SLP098
METAR CYNL 080200Z AUTO ///// 9SM CLR M18/M20 A2961 RMK AO1 PRESRR SLP090
METAR CYNL 080100Z AUTO ///// 9SM SCT013 M17/M20 A2959 RMK AO1 PRESRR SLP081
SPECI CYNL 080052Z AUTO ///// 9SM SCT013 M17/M20 A2958 RMK AO1 PRESRR SLP077
SPECI CYNL 080006Z AUTO ///// 9SM BKN014 M17/M19 A2957 RMK AO1 PRESRR SLP072
SPECI CYNL 080004Z AUTO ///// 9SM SCT014 BKN017 M17/M19 A2957 RMK AO1 PRESRR SLP071
METAR CYNL 080000Z AUTO ///// 9SM SCT014 M17/M19 A2956 RMK AO1 PRESRR SLP070
SPECI CYNL 072359Z AUTO ///// 9SM SCT014 M17/M19 A2956 RMK AO1 PRESRR SLP070
SPECI CYNL 072354Z AUTO ///// 9SM BKN014 M17/M19 A2956 RMK AO1 PRESRR SLP069
METAR CYNL 072300Z AUTO ///// 4SM FEW008 OVC017 M16/M19 A2953 RMK AO1 PRESRR SLP057
SPECI CYNL 072254Z AUTO ///// 4SM FEW008 BKN017 M16/M19 A2952 RMK AO1 PRESRR SLP055
SPECI CYNL 072243Z AUTO ///// 3SM FEW011 BKN017 M16/M18 A2951 RMK AO1 PRESRR SLP052
SPECI CYNL 072242Z AUTO ///// 2 1/2SM FEW008 BKN017 M16/M18 A2951 RMK AO1 PRESRR SLP051
SPECI CYNL 072238Z AUTO ///// 3SM FEW008 BKN017 M15/M18 A2951 RMK AO1 PRESRR SLP050
SPECI CYNL 072231Z AUTO ///// 2SM FEW008 BKN017 M15/M18 A2950 RMK AO1 PRESRR SLP048
SPECI CYNL 072230Z AUTO ///// 1 3/4SM BKN017 M15/M18 A2950 RMK AO1 PRESRR SLP048
SPECI CYNL 072229Z AUTO ///// 2SM BKN017 M15/M18 A2950 RMK AO1 PRESRR SLP048
SPECI CYNL 072224Z AUTO ///// 3SM BKN017 M15/M18 A2950 RMK AO1 PRESRR SLP046
SPECI CYNL 072222Z AUTO ///// 2 1/2SM BKN017 M15/M18 A2950 RMK AO1 PRESRR SLP045
SPECI CYNL 072220Z AUTO ///// 3SM OVC017 M15/M18 A2950 RMK AO1 PRESRR SLP045
SPECI CYNL 072216Z AUTO ///// 2 1/2SM OVC016 M15/M18 A2949 RMK AO1 PRESRR SLP044
SPECI CYNL 072213Z AUTO ///// 3SM OVC016 M15/M17 A2949 RMK AO1 PRESRR SLP043
SPECI CYNL 072210Z AUTO ///// 2 1/2SM OVC017 M15/M17 A2949 RMK AO1 PRESRR SLP042
SPECI CYNL 072209Z AUTO ///// 3SM OVC017 M15/M17 A2949 RMK AO1 PRESRR SLP042
SPECI CYNL 072208Z AUTO ///// 2 1/2SM OVC017 M15/M17 A2949 RMK AO1 PRESRR SLP042
SPECI CYNL 072202Z AUTO ///// 3SM OVC017 M15/M17 A2949 RMK AO1 PRESRR SLP041
METAR CYNL 072200Z AUTO ///// 2SM OVC017 M15/M17 A2948 RMK AO1 PRESRR SLP040
SPECI CYNL 072151Z AUTO ///// 2 1/2SM OVC018 M14/M17 A2948 RMK AO1 PRESRR SLP038
SPECI CYNL 072146Z AUTO ///// 3SM FEW013 OVC018 M14/M17 A2947 RMK AO1 PRESRR SLP036
SPECI CYNL 072143Z AUTO ///// 2SM VV017 M14/M17 A2947 RMK AO1 PRESRR SLP035
SPECI CYNL 072141Z AUTO ///// 1 1/2SM FEW013 OVC018 M14/M17 A2947 RMK AO1 PRESRR SLP034
SPECI CYNL 072140Z AUTO ///// 1 1/4SM FEW013 OVC018 M14/M17 A2947 RMK AO1 PRESRR SLP033
SPECI CYNL 072137Z AUTO ///// 1 3/4SM FEW013 OVC019 M14/M17 A2946 RMK AO1 PRESRR SLP032
SPECI CYNL 072136Z AUTO ///// 2 1/2SM FEW013 OVC019 M14/M17 A2946 RMK AO1 PRESRR SLP032
SPECI CYNL 072125Z AUTO ///// 4SM SCT012 BKN018 OVC074 M14/M17 A2945 RMK AO1 PRESRR SLP029
SPECI CYNL 072124Z AUTO ///// 2 1/2SM VV013 M14/M17 A2945 RMK AO1 PRESRR SLP028
SPECI CYNL 072123Z AUTO ///// 1 1/2SM VV014 M14/M17 A2945 RMK AO1 PRESRR SLP028
SPECI CYNL 072122Z AUTO ///// 1SM VV014 M14/M17 A2945 RMK AO1 PRESRR SLP029
SPECI CYNL 072119Z AUTO ///// 3/4SM VV017 M14/M17 A2945 RMK AO1 PRESRR SLP027
SPECI CYNL 072117Z AUTO ///// 1 1/4SM BKN018 OVC070 M14/M17 A2945 RMK AO1 PRESRR SLP027
SPECI CYNL 072116Z AUTO ///// 1 3/4SM BKN018 OVC070 M14/M17 A2945 RMK AO1 PRESRR SLP026
SPECI CYNL 072114Z AUTO ///// 2SM FEW013 BKN018 OVC070 M14/M17 A2944 RMK AO1 PRESRR SLP026
SPECI CYNL 072113Z AUTO ///// 1 3/4SM FEW013 BKN018 OVC070 M14/M17 A2944 RMK AO1 PRESRR SLP025
SPECI CYNL 072111Z AUTO ///// 2 1/2SM FEW014 BKN018 OVC070 M14/M17 A2944 RMK AO1 PRESRR SLP024
SPECI CYNL 072105Z AUTO ///// 6SM FEW008 SCT016 BKN019 M14/M17 A2943 RMK AO1 PRESRR SLP022
SPECI CYNL 072102Z AUTO ///// 3SM FEW013 SCT016 BKN019 M14/M17 A2943 RMK AO1 PRESRR SLP021
SPECI CYNL 072101Z AUTO ///// 2 1/2SM FEW012 SCT016 OVC019 M14/M17 A2943 RMK AO1 PRESRR SLP021
METAR CYNL 072100Z AUTO ///// 1 3/4SM FEW012 SCT016 OVC019 M14/M16 A2943 RMK AO1 PRESRR SLP021
SPECI CYNL 072058Z AUTO ///// 1 1/2SM FEW009 OVC018 M14/M16 A2943 RMK AO1 PRESRR SLP019
SPECI CYNL 072056Z AUTO ///// 2SM FEW008 OVC018 M14/M16 A2943 RMK AO1 PRESRR SLP019
SPECI CYNL 072053Z AUTO ///// 2 1/2SM FEW010 OVC018 M14/M16 A2943 RMK AO1 PRESRR SLP018
SPECI CYNL 072038Z AUTO ///// 3SM FEW009 BKN017 BKN019 M13/M16 A2942 RMK AO1 PRESRR SLP014
SPECI CYNL 072033Z AUTO ///// 3SM FEW011 BKN017 OVC047 M13/M16 A2941 RMK AO1 PRESRR SLP013
SPECI CYNL 072029Z AUTO ///// 2 1/2SM FEW011 BKN017 OVC047 M13/M16 A2941 RMK AO1 PRESRR SLP012
SPECI CYNL 072026Z AUTO ///// 3SM FEW012 BKN017 OVC046 M13/M16 A2941 RMK AO1 PRESRR SLP012
SPECI CYNL 072025Z AUTO ///// 2 1/2SM FEW012 BKN017 OVC046 M13/M16 A2941 RMK AO1 PRESRR SLP012
SPECI CYNL 072023Z AUTO ///// 3SM BKN016 OVC046 M13/M16 A2941 RMK AO1 PRESRR SLP011
SPECI CYNL 072020Z AUTO ///// 2 1/2SM FEW012 BKN017 OVC046 M13/M16 A2940 RMK AO1 PRESRR SLP011
SPECI CYNL 072016Z AUTO ///// 3SM FEW012 BKN016 OVC047 M13/M16 A2940 RMK AO1 PRESRR SLP009
SPECI CYNL 072013Z AUTO ///// 2 1/2SM FEW012 OVC017 M13/M16 A2940 RMK AO1 PRESRR SLP009
SPECI CYNL 072012Z AUTO ///// 3SM FEW012 OVC017 M13/M16 A2940 RMK AO1 PRESRR SLP009
SPECI CYNL 072011Z AUTO ///// 2 1/2SM SCT013 OVC017 M13/M16 A2940 RMK AO1 PRESRR SLP008
SPECI CYNL 072001Z AUTO ///// 4SM SCT012 OVC017 M13/M16 A2939 RMK AO1 PRESRR SLP006
METAR CYNL 072000Z AUTO ///// 3SM VV014 M13/M16 A2939 RMK AO1 PRESRR SLP006
SPECI CYNL 071959Z AUTO ///// 3SM VV014 M13/M16 A2939 RMK AO1 PRESRR SLP005
SPECI CYNL 071958Z AUTO ///// 3SM VV015 M13/M16 A2939 RMK AO1 PRESRR SLP005
SPECI CYNL 071957Z AUTO ///// 2 1/2SM VV015 M13/M16 A2939 RMK AO1 SLP005
SPECI CYNL 071953Z AUTO ///// 2 1/2SM VV014 M13/M16 A2939 RMK AO1 SLP004
SPECI CYNL 071951Z AUTO ///// 1 3/4SM VV013 M13/M16 A2939 RMK AO1 SLP004
SPECI CYNL 071948Z AUTO ///// 2SM VV014 M13/M16 A2938 RMK AO1 SLP003
SPECI CYNL 071944Z AUTO ///// 1 3/4SM FEW012 OVC019 M13/M16 A2938 RMK AO1 SLP002
SPECI CYNL 071942Z AUTO ///// 2 1/2SM FEW012 OVC019 M13/M16 A2938 RMK AO1 SLP001
SPECI CYNL 071939Z AUTO ///// 3SM SCT012 OVC019 M13/M16 A2938 RMK AO1 SLP001
SPECI CYNL 071938Z AUTO ///// 2SM VV014 M13/M16 A2938 RMK AO1 SLP001
SPECI CYNL 071935Z AUTO ///// 1 3/4SM VV014 M13/M16 A2938 RMK AO1 SLP000
SPECI CYNL 071933Z AUTO ///// 1 3/4SM VV015 M13/M16 A2938 RMK AO1 SLP000
SPECI CYNL 071926Z AUTO ///// 2 1/2SM SCT011 BKN019 OVC046 M13/M16 A2937 RMK AO1 SLP999
SPECI CYNL 071924Z AUTO ///// 3SM VV016 M13/M16 A2937 RMK AO1 SLP999
SPECI CYNL 071918Z AUTO ///// 2 1/2SM VV016 M13/M16 A2937 RMK AO1 SLP998
SPECI CYNL 071916Z AUTO ///// 3SM VV015 M13/M16 A2937 RMK AO1 SLP997
SPECI CYNL 071902Z AUTO ///// 3SM FEW008 BKN013 OVC046 M13/M16 A2936 RMK AO1 SLP994
SPECI CYNL 071901Z AUTO ///// 3SM FEW007 SCT012 BKN015 M13/M16 A2936 RMK AO1 SLP993
METAR CYNL 071900Z AUTO ///// 4SM FEW007 BKN013 OVC046 M13/M16 A2936 RMK AO1 SLP993
SPECI CYNL 071859Z AUTO ///// 4SM FEW007 SCT012 BKN014 M13/M16 A2936 RMK AO1 SLP993
SPECI CYNL 071858Z AUTO ///// 4SM VV009 M13/M16 A2936 RMK AO1 SLP993
SPECI CYNL 071845Z AUTO ///// 3SM VV013 M13/M16 A2935 RMK AO1 SLP991
SPECI CYNL 071823Z AUTO ///// 2SM VV014 M14/M16 A2935 RMK AO1 SLP991
METAR CYNL 071800Z AUTO ///// 2 1/2SM VV021 M14/M16 A2935 RMK AO1 SLP990
SPECI CYNL 071755Z AUTO ///// 2 1/2SM VV020 M14/M16 A2935 RMK AO1 SLP992
SPECI CYNL 071751Z AUTO ///// 3SM VV020 M14/M16 A2935 RMK AO1 SLP991
SPECI CYNL 071750Z AUTO ///// 2 1/2SM VV020 M14/M16 A2935 RMK AO1 SLP991
SPECI CYNL 071749Z AUTO ///// 3SM VV020 M14/M16 A2935 RMK AO1 SLP991
SPECI CYNL 071728Z AUTO ///// 2SM VV015 M14/M16 A2934 RMK AO1 SLP989
SPECI CYNL 071727Z AUTO ///// 1 3/4SM VV015 M14/M16 A2934 RMK AO1 SLP989
SPECI CYNL 071718Z AUTO ///// 2 1/2SM VV022 M14/M16 A2934 RMK AO1 SLP989
SPECI CYNL 071717Z AUTO ///// 3SM VV024 M14/M16 A2934 RMK AO1 SLP989
SPECI CYNL 071716Z AUTO ///// 3SM VV025 M14/M16 A2934 RMK AO1 SLP988
SPECI CYNL 071712Z AUTO ///// 2 1/2SM VV025 M14/M16 A2934 RMK AO1 SLP988
METAR CYNL 071700Z AUTO ///// 2 1/2SM VV018 M14/M16 A2933 RMK AO1 SLP986
SPECI CYNL 071655Z AUTO ///// 2 1/2SM VV019 M14/M16 A2933 RMK AO1 PRESRR SLP987
SPECI CYNL 071641Z AUTO ///// 3SM VV024 M14/M16 A2933 RMK AO1 PRESRR SLP986
SPECI CYNL 071636Z AUTO ///// 3SM VV029 M14/M16 A2933 RMK AO1 PRESRR SLP986
SPECI CYNL 071627Z AUTO ///// 3SM SCT019 OVC030 M14/M16 A2933 RMK AO1 PRESRR SLP985
SPECI CYNL 071619Z AUTO ///// 3SM VV024 M14/M16 A2932 RMK AO1 PRESRR SLP984
SPECI CYNL 071616Z AUTO ///// 3SM VV029 M14/M16 A2932 RMK AO1 PRESRR SLP984
SPECI CYNL 071612Z AUTO ///// 3SM VV030 M14/M16 A2932 RMK AO1 PRESRR SLP983
SPECI CYNL 071608Z AUTO ///// 3SM VV025 M14/M16 A2932 RMK AO1 PRESRR SLP984
SPECI CYNL 071607Z AUTO ///// 3SM VV024 M14/M16 A2932 RMK AO1 PRESRR SLP984
SPECI CYNL 071603Z AUTO ///// 2SM VV017 M14/M16 A2932 RMK AO1 PRESRR SLP983
SPECI CYNL 071601Z AUTO ///// 1 1/2SM VV015 M14/M16 A2932 RMK AO1 PRESRR SLP983
METAR CYNL 071600Z AUTO ///// 1 1/4SM VV015 M14/M16 A2932 RMK AO1 PRESRR SLP983
SPECI CYNL 071552Z AUTO ///// 1 1/4SM VV016 M14/M16 A2932 RMK AO1 SLP982
SPECI CYNL 071544Z AUTO ///// 1 3/4SM VV015 M14/M16 A2931 RMK AO1 SLP981
SPECI CYNL 071539Z AUTO ///// 2 1/2SM VV015 M14/M16 A2931 RMK AO1 SLP980
SPECI CYNL 071538Z AUTO ///// 2 1/2SM FEW009 SCT015 OVC033 M14/M16 A2931 RMK AO1 SLP980
SPECI CYNL 071521Z AUTO ///// 7SM FEW009 SCT019 OVC033 M13/M16 A2931 RMK AO1 SLP978
METAR CYNL 071500Z AUTO ///// 6SM FEW009 SCT014 OVC021 M13/M16 A2930 RMK AO1 SLP975
SPECI CYNL 071457Z AUTO ///// 6SM FEW009 SCT015 OVC021 M13/M16 A2930 RMK AO1 SLP975
SPECI CYNL 071409Z AUTO ///// 9SM BKN022 M14/M16 A2929 RMK AO1 SLP974
METAR CYNL 071400Z AUTO ///// 9SM SCT020 OVC027 M13/M16 A2929 RMK AO1 SLP973
SPECI CYNL 071303Z AUTO 26005KT 9SM FEW015 SCT019 BKN023 M11/M13 A2929 RMK AO1 SLP969
METAR CYNL 071300Z AUTO 26006KT 9SM SCT020 BKN042 M11/M13 A2929 RMK AO1 SLP969
METAR CYNL 071200Z AUTO 22003KT 9SM FEW012 SCT018 OVC041 M11/M13 A2929 RMK AO1 PRESFR SLP971
SPECI CYNL 071152Z AUTO 21003KT 9SM SCT012 OVC041 M11/M13 A2930 RMK AO1 SLP972
SPECI CYNL 071149Z AUTO 21003KT 9SM SCT012 BKN019 OVC041 M11/M13 A2930 RMK AO1 SLP973
METAR CYNL 071100Z AUTO 21003KT 9SM OVC012 M11/M13 A2932 RMK AO1 SLP980
SPECI CYNL 071027Z AUTO 26003KT 6SM BKN014 OVC031 M11/M12 A2933 RMK AO1 SLP981
SPECI CYNL 071025Z AUTO 26003KT 5SM SCT014 BKN017 OVC031 M11/M12 A2932 RMK AO1 SLP980
SPECI CYNL 071023Z AUTO 26003KT 5SM BKN014 OVC031 M11/M12 A2932 RMK AO1 SLP978
SPECI CYNL 071013Z AUTO 26003KT 3SM VV015 M10/M12 A2933 RMK AO1 SLP981
SPECI CYNL 071009Z AUTO 27004KT 3SM BKN014 OVC020 M10/M12 A2933 RMK AO1 SLP981
SPECI CYNL 071008Z AUTO 27005KT 2 1/2SM BKN014 OVC020 M10/M12 A2933 RMK AO1 SLP981
METAR CYNL 071000Z AUTO 28004KT 9SM BKN014 OVC020 M10/M12 A2933 RMK AO1 SLP983
SPECI CYNL 070943Z AUTO 28004KT 7SM BKN013 OVC022 M10/M12 A2934 RMK AO1 SLP984
SPECI CYNL 070942Z AUTO 28005KT 6SM SCT013 OVC022 M10/M12 A2934 RMK AO1 SLP984
METAR CYNL 070900Z AUTO 28009KT 9SM OVC012 M10/M12 A2934 RMK AO1 SLP986
SPECI CYNL 070842Z AUTO 28009G18KT 9SM BKN013 BKN017 OVC021 M10/M12 A2934 RMK AO1 SLP986
SPECI CYNL 070826Z AUTO 27010G17KT 9SM BKN018 OVC025 M10/M12 A2934 RMK AO1 SLP985
SPECI CYNL 070823Z AUTO 27009KT 9SM SCT018 OVC026 M10/M12 A2934 RMK AO1 SLP985
SPECI CYNL 070815Z AUTO 27010KT 9SM FEW017 OVC024 M10/M12 A2934 RMK AO1 SLP985
SPECI CYNL 070801Z AUTO 27008G16KT 9SM SCT016 OVC027 M10/M11 A2934 RMK AO1 SLP984
METAR CYNL 070800Z AUTO 27010G16KT 9SM BKN016 OVC027 M10/M11 A2934 RMK AO1 SLP984
SPECI CYNL 070734Z AUTO 26011G18KT 9SM SCT011 OVC017 M09/M10 A2935 RMK AO1 SLP984
SPECI CYNL 070716Z AUTO 25006KT 9SM SCT006 OVC010 M09/M11 A2935 RMK AO1 SLP986
METAR CYNL 070700Z AUTO 23004KT 9SM BKN006 OVC007 M10/M11 A2935 RMK AO1 SLP986
SPECI CYNL 070641Z AUTO 22003KT 3SM OVC006 M10/M12 A2935 RMK AO1 SLP988
SPECI CYNL 070631Z AUTO 22003KT 2 1/2SM BKN006 OVC008 M10/M12 A2935 RMK AO1 SLP988
SPECI CYNL 070604Z AUTO 19002KT 9SM BKN009 OVC011 M11/M12 A2936 RMK AO1 SLP990
METAR CYNL 070600Z AUTO 00000KT 9SM OVC010 M11/M12 A2936 RMK AO1 SLP991
SPECI CYNL 070530Z AUTO ///// 4SM SCT008 BKN010 OVC015 M11/M13 A2937 RMK AO1 SLP994
SPECI CYNL 070528Z AUTO 17003KT 3SM VV009 M11/M13 A2937 RMK AO1 SLP994
SPECI CYNL 070526Z AUTO 17003KT 2SM VV010 M11/M13 A2937 RMK AO1 SLP994
SPECI CYNL 070523Z AUTO 16003KT 1 1/2SM VV010 M11/M13 A2937 RMK AO1 SLP993
SPECI CYNL 070521Z AUTO ///// 1 1/4SM VV010 M11/M13 A2937 RMK AO1 SLP994
SPECI CYNL 070520Z AUTO ///// 1 1/4SM VV009 M11/M13 A2937 RMK AO1 SLP994
SPECI CYNL 070519Z AUTO 16003KT 1 1/2SM VV009 M11/M13 A2937 RMK AO1 SLP993
SPECI CYNL 070511Z AUTO 15003KT 1SM VV007 M11/M13 A2937 RMK AO1 SLP994
SPECI CYNL 070510Z AUTO 16003KT 3/4SM VV007 M11/M13 A2937 RMK AO1 SLP994
SPECI CYNL 070505Z AUTO 15003KT 5/8SM VV009 M11/M13 A2937 RMK AO1 SLP994
METAR CYNL 070500Z AUTO 15003KT 1 1/4SM VV009 M11/M13 A2937 RMK AO1 SLP995
SPECI CYNL 070453Z AUTO 14004KT 1SM VV009 M11/M13 A2937 RMK AO1 PRESFR SLP996
SPECI CYNL 070452Z AUTO 15004KT 3/4SM VV009 M11/M13 A2937 RMK AO1 PRESFR SLP996
SPECI CYNL 070449Z AUTO 14003KT 1SM VV009 M11/M13 A2937 RMK AO1 PRESFR SLP997
SPECI CYNL 070438Z AUTO 14004KT 1SM VV010 M11/M13 A2938 RMK AO1 PRESFR SLP999
SPECI CYNL 070433Z AUTO 14003KT 1SM VV009 M11/M13 A2938 RMK AO1 PRESFR SLP999
SPECI CYNL 070430Z AUTO 14003KT 3/4SM VV009 M11/M13 A2938 RMK AO1 PRESFR SLP000
SPECI CYNL 070429Z AUTO 14003KT 5/8SM VV009 M11/M13 A2938 RMK AO1 PRESFR SLP000
SPECI CYNL 070424Z AUTO ///// 3/4SM VV008 M11/M13 A2938 RMK AO1 PRESFR SLP000
SPECI CYNL 070420Z AUTO 14004KT 5/8SM VV009 M11/M13 A2938 RMK AO1 PRESFR SLP001
SPECI CYNL 070419Z AUTO 14004KT 3/4SM VV009 M11/M13 A2938 RMK AO1 PRESFR SLP001
SPECI CYNL 070414Z AUTO ///// 1SM VV008 M12/M13 A2938 RMK AO1 PRESFR SLP001
SPECI CYNL 070412Z AUTO ///// 3/4SM VV008 M12/M13 A2938 RMK AO1 PRESFR SLP001
SPECI CYNL 070411Z AUTO ///// 5/8SM VV008 M12/M13 A2938 RMK AO1 PRESFR SLP001
SPECI CYNL 070409Z AUTO 14005KT 3/4SM VV008 M12/M13 A2938 RMK AO1 PRESFR SLP002
SPECI CYNL 070405Z AUTO 14004KT 1SM VV009 M12/M13 A2939 RMK AO1 PRESFR SLP003
METAR CYNL 070400Z AUTO 14004KT 1SM VV013 M12/M13 A2939 RMK AO1 PRESFR SLP003
SPECI CYNL 070359Z AUTO 14004KT 1 1/4SM VV014 M12/M13 A2939 RMK AO1 PRESFR SLP003
SPECI CYNL 070356Z AUTO 13005KT 1 3/4SM VV014 M12/M14 A2939 RMK AO1 SLP003
SPECI CYNL 070354Z AUTO 13004KT 2SM VV012 M12/M14 A2939 RMK AO1 SLP003
SPECI CYNL 070351Z AUTO 13004KT 1 1/2SM VV010 M12/M14 A2939 RMK AO1 SLP003
SPECI CYNL 070345Z AUTO 12004KT 1SM VV009 M12/M14 A2939 RMK AO1 SLP004
SPECI CYNL 070339Z AUTO 12004KT 1 1/4SM VV013 M12/M14 A2939 RMK AO1 SLP004
SPECI CYNL 070334Z AUTO 11005KT 1 1/2SM VV012 M12/M14 A2939 RMK AO1 SLP004
SPECI CYNL 070323Z AUTO 11004KT 1 1/4SM VV011 M12/M14 A2940 RMK AO1 SLP006
SPECI CYNL 070320Z AUTO 11004KT 1 1/2SM VV011 M12/M14 A2940 RMK AO1 SLP006
SPECI CYNL 070304Z AUTO 12005KT 1 1/4SM VV010 M12/M14 A2941 RMK AO1 SLP010
SPECI CYNL 070302Z AUTO 12005KT 1SM VV009 M12/M14 A2941 RMK AO1 SLP010
METAR CYNL 070300Z AUTO 12005KT 3/4SM VV009 M12/M14 A2941 RMK AO1 SLP011
SPECI CYNL 070259Z AUTO 12004KT 3/4SM VV008 M12/M14 A2941 RMK AO1 SLP011
SPECI CYNL 070247Z AUTO 12004KT 5/8SM VV008 M12/M14 A2942 RMK AO1 SLP013
SPECI CYNL 070241Z AUTO 12004KT 3/4SM VV008 M12/M14 A2942 RMK AO1 SLP014
SPECI CYNL 070231Z AUTO 12005KT 5/8SM VV008 M12/M14 A2942 RMK AO1 SLP014
SPECI CYNL 070225Z AUTO 12004KT 3/4SM VV009 M12/M14 A2942 RMK AO1 SLP014
SPECI CYNL 070221Z AUTO 12004KT 3/4SM VV011 M12/M14 A2942 RMK AO1 SLP015
SPECI CYNL 070218Z AUTO 12004KT 1 1/4SM VV013 M12/M14 A2942 RMK AO1 SLP015
SPECI CYNL 070209Z AUTO 12005KT 1 1/2SM VV012 M12/M14 A2942 RMK AO1 SLP016
METAR CYNL 070200Z AUTO 11005KT 1 1/4SM VV011 M12/M14 A2943 RMK AO1 SLP017
SPECI CYNL 070147Z AUTO 12004KT 1 1/4SM VV012 M12/M14 A2944 RMK AO1 SLP020
SPECI CYNL 070141Z AUTO 12004KT 1 1/2SM VV012 M12/M14 A2944 RMK AO1 SLP022
SPECI CYNL 070135Z AUTO 13004KT 1SM VV010 M12/M14 A2944 RMK AO1 SLP023
SPECI CYNL 070130Z AUTO 12004KT 1SM VV006 M12/M14 A2944 RMK AO1 SLP022
SPECI CYNL 070124Z AUTO 11005KT 1SM BKN002 OVC016 M12/M14 A2944 RMK AO1 SLP022
SPECI CYNL 070122Z AUTO 12004KT 3/4SM SCT002 BKN005 OVC016 M12/M14 A2944 RMK AO1 SLP023
SPECI CYNL 070114Z AUTO 12004KT 5/8SM SCT002 BKN005 OVC017 M12/M14 A2944 RMK AO1 SLP023
SPECI CYNL 070109Z AUTO 12004KT 1 1/4SM FEW003 BKN005 OVC016 M12/M14 A2945 RMK AO1 SLP024
SPECI CYNL 070107Z AUTO 12004KT 1 1/2SM FEW003 BKN005 OVC016 M12/M14 A2945 RMK AO1 SLP024
SPECI CYNL 070105Z AUTO 12005KT 1 3/4SM SCT005 BKN010 OVC016 M12/M14 A2944 RMK AO1 SLP023
METAR CYNL 070100Z AUTO 10005KT 2 1/2SM BKN005 OVC017 M12/M14 A2944 RMK AO1 SLP023
SPECI CYNL 070041Z AUTO 09005KT 2SM BKN005 OVC017 M12/M13 A2944 RMK AO1 SLP023
SPECI CYNL 070039Z AUTO 10006KT 1 3/4SM BKN005 OVC017 M12/M13 A2944 RMK AO1 SLP024
SPECI CYNL 070036Z AUTO 09005KT 2SM BKN005 OVC017 M12/M13 A2944 RMK AO1 SLP024
SPECI CYNL 070035Z AUTO 10006KT 1 3/4SM BKN005 OVC017 M12/M13 A2944 RMK AO1 SLP023
SPECI CYNL 070031Z AUTO 10005KT 2SM BKN005 OVC017 M12/M13 A2944 RMK AO1 SLP023
SPECI CYNL 070030Z AUTO 10006KT 1 3/4SM BKN005 OVC017 M12/M13 A2944 RMK AO1 SLP023
SPECI CYNL 070022Z AUTO 09005KT 1 3/4SM VV012 M12/M13 A2945 RMK AO1 SLP025
METAR CYNL 070000Z AUTO 09006KT 2 1/2SM OVC006 M12/M13 A2946 RMK AO1 SLP029
SPECI CYNL 062331Z AUTO 10005KT 2SM OVC008 M11/M13 A2947 RMK AO1 SLP031
SPECI CYNL 062328Z AUTO 10006KT 1 3/4SM OVC009 M11/M13 A2947 RMK AO1 SLP031
SPECI CYNL 062322Z AUTO 10006KT 2 1/2SM BKN009 OVC018 M11/M13 A2947 RMK AO1 SLP032
SPECI CYNL 062305Z AUTO 10006KT 9SM BKN009 OVC018 M11/M13 A2947 RMK AO1 SLP031
METAR CYNL 062300Z AUTO 10005KT 9SM SCT009 OVC018 M11/M13 A2947 RMK AO1 SLP031
METAR CYNL 062200Z AUTO 12004KT 9SM SCT009 OVC018 M11/M13 A2948 RMK AO1 SLP036
SPECI CYNL 062158Z AUTO 12004KT 9SM SCT009 OVC018 M11/M13 A2948 RMK AO1 SLP037
METAR CYNL 062100Z AUTO 08003KT 9SM BKN009 OVC018 M10/M12 A2949 RMK AO1 SLP037
SPECI CYNL 062058Z AUTO 07004KT 9SM BKN009 OVC018 M10/M12 A2949 RMK AO1 SLP038
METAR CYNL 062000Z AUTO 09005KT 9SM SCT009 OVC019 M10/M12 A2950 RMK AO1 SLP042
SPECI CYNL 061924Z AUTO 04003KT 9SM FEW009 OVC020 M10/M12 A2951 RMK AO1 SLP046
METAR CYNL 061900Z AUTO 05003KT 9SM OVC021 M10/M12 A2952 RMK AO1 SLP048
METAR CYNL 061800Z AUTO 00000KT 9SM OVC021 M10/M12 A2953 RMK AO1 SLP053
SPECI CYNL 061725Z AUTO 00000KT 9SM BKN020 BKN074 M10/M12 A2954 RMK AO1 SLP058
METAR CYNL 061700Z AUTO 00000KT 9SM FEW021 OVC032 M11/M13 A2954 RMK AO1 SLP059
METAR CYNL 061600Z AUTO 00000KT 9SM BKN032 OVC084 M11/M13 A2955 RMK AO1 SLP062
SPECI CYNL 061520Z AUTO 00000KT 9SM SCT025 OVC032 M11/M13 A2956 RMK AO1 PRESFR SLP065
METAR CYNL 061500Z AUTO 18003KT 9SM OVC026 M11/M13 A2956 RMK AO1 PRESFR SLP066
METAR CYNL 061400Z AUTO 00000KT 9SM BKN028 M11/M13 A2958 RMK AO1 SLP076
SPECI CYNL 061340Z AUTO 00000KT 7SM FEW004 SCT007 BKN028 M12/M13 A2959 RMK AO1 PRESFR SLP080
SPECI CYNL 061305Z AUTO 18003KT 3SM VV009 M12/M14 A2959 RMK AO1 PRESFR SLP080
SPECI CYNL 061302Z AUTO 17003KT 2 1/2SM VV012 M12/M14 A2960 RMK AO1 PRESFR SLP081
METAR CYNL 061300Z AUTO 17003KT 3SM VV013 M12/M14 A2960 RMK AO1 PRESFR SLP081
SPECI CYNL 061258Z AUTO 18003KT 3SM VV014 M12/M14 A2960 RMK AO1 PRESFR SLP082
SPECI CYNL 061255Z AUTO 17003KT 4SM VV015 M12/M14 A2960 RMK AO1 PRESFR SLP083
METAR CYNL 061200Z AUTO 18003KT 9SM OVC012 M12/M14 A2962 RMK AO1 PRESFR SLP090
SPECI CYNL 061129Z AUTO 18004KT 9SM BKN012 M12/M14 A2964 RMK AO1 PRESFR SLP095
SPECI CYNL 061120Z AUTO 18004KT 9SM FEW013 BKN019 M12/M14 A2964 RMK AO1 PRESFR SLP097
SPECI CYNL 061115Z AUTO 18003KT 8SM FEW006 SCT019 M12/M14 A2964 RMK AO1 PRESFR SLP097
METAR CYNL 061100Z AUTO 19003KT 5SM FEW006 SCT012 BKN019 M12/M14 A2965 RMK AO1 PRESFR SLP100
SPECI CYNL 061052Z AUTO 17004KT 5SM FEW006 SCT009 BKN019 M12/M14 A2965 RMK AO1 PRESFR SLP101
SPECI CYNL 061050Z AUTO 18004KT 4SM SCT006 BKN012 BKN019 M12/M14 A2965 RMK AO1 PRESFR SLP102
SPECI CYNL 061047Z AUTO 18004KT 3SM VV009 M12/M14 A2965 RMK AO1 PRESFR SLP102
SPECI CYNL 061042Z AUTO 18004KT 4SM VV013 M12/M14 A2966 RMK AO1 PRESFR SLP102
SPECI CYNL 061026Z AUTO 18003KT 5SM SCT006 BKN020 M12/M14 A2966 RMK AO1 PRESFR SLP106
SPECI CYNL 061018Z AUTO 18004KT 4SM VV007 M12/M14 A2967 RMK AO1 PRESFR SLP106
SPECI CYNL 061007Z AUTO 17004KT 8SM FEW009 SCT012 OVC020 M12/M14 A2967 RMK AO1 PRESFR SLP109
METAR CYNL 061000Z AUTO 17004KT 6SM SCT010 OVC020 M12/M14 A2968 RMK AO1 PRESFR SLP110
SPECI CYNL 060959Z AUTO 18004KT 5SM FEW009 SCT012 OVC020 M12/M14 A2968 RMK AO1 PRESFR SLP110
SPECI CYNL 060958Z AUTO 18004KT 4SM FEW009 BKN012 OVC020 M12/M14 A2968 RMK AO1 PRESFR SLP111
SPECI CYNL 060954Z AUTO 18003KT 3SM BKN010 OVC020 M12/M14 A2968 RMK AO1 PRESFR SLP111
SPECI CYNL 060949Z AUTO 19004KT 2SM VV010 M12/M14 A2968 RMK AO1 PRESFR SLP113
SPECI CYNL 060936Z AUTO 19004KT 1 3/4SM VV012 M12/M14 A2969 RMK AO1 PRESFR SLP115
SPECI CYNL 060928Z AUTO 19004KT 2SM VV010 M12/M14 A2970 RMK AO1 PRESFR SLP117
SPECI CYNL 060914Z AUTO 19004KT 1 3/4SM VV011 M12/M14 A2970 RMK AO1 PRESFR SLP118
SPECI CYNL 060906Z AUTO 19004KT 2SM VV010 M12/M15 A2970 RMK AO1 PRESFR SLP118
SPECI CYNL 060904Z AUTO 19006KT 2SM FEW005 M13/M15 A2970 RMK AO1 PRESFR SLP119
METAR CYNL 060900Z AUTO 18006KT 9SM FEW005 M13/M15 A2970 RMK AO1 PRESFR SLP119
SPECI CYNL 060847Z AUTO 19006KT 9SM FEW005 SCT008 M13/M15 A2971 RMK AO1 PRESFR SLP122
SPECI CYNL 060825Z AUTO 18005KT 3SM VV008 M13/M15 A2972 RMK AO1 PRESFR SLP125
SPECI CYNL 060822Z AUTO 18005KT 2SM VV008 M13/M15 A2972 RMK AO1 PRESFR SLP125
SPECI CYNL 060819Z AUTO 18005KT 1 1/2SM VV008 M13/M15 A2972 RMK AO1 PRESFR SLP126
SPECI CYNL 060802Z AUTO 18006KT 1SM VV009 M13/M15 A2972 RMK AO1 PRESFR SLP127
METAR CYNL 060800Z AUTO ///// 1SM VV010 M13/M15 A2972 RMK AO1 PRESFR SLP128
SPECI CYNL 060757Z AUTO 18006KT 1 1/4SM VV012 M13/M15 A2973 RMK AO1 PRESFR SLP129
SPECI CYNL 060746Z AUTO ///// 1 3/4SM VV010 M13/M15 A2973 RMK AO1 PRESFR SLP130
SPECI CYNL 060733Z AUTO ///// 2 1/2SM VV010 M13/M15 A2974 RMK AO1 PRESFR SLP133
SPECI CYNL 060727Z AUTO 17006KT 2SM VV008 M13/M15 A2974 RMK AO1 PRESFR SLP134
SPECI CYNL 060721Z AUTO 17005KT 1 1/2SM VV008 M13/M16 A2974 RMK AO1 PRESFR SLP136
SPECI CYNL 060717Z AUTO ///// 1 1/4SM VV008 M13/M16 A2975 RMK AO1 PRESFR SLP136
SPECI CYNL 060714Z AUTO ///// 1 1/2SM VV008 M13/M16 A2975 RMK AO1 PRESFR SLP136
SPECI CYNL 060711Z AUTO ///// 1 1/4SM VV008 M13/M16 A2975 RMK AO1 PRESFR SLP137
SPECI CYNL 060709Z AUTO ///// 1 3/4SM VV009 M13/M16 A2975 RMK AO1 PRESFR SLP137
SPECI CYNL 060707Z AUTO 17006KT 2SM VV009 M13/M16 A2975 RMK AO1 PRESFR SLP138
SPECI CYNL 060706Z AUTO ///// 1 3/4SM VV009 M13/M16 A2975 RMK AO1 PRESFR SLP138
METAR CYNL 060700Z AUTO 17006KT 2 1/2SM VV009 M14/M16 A2975 RMK AO1 PRESFR SLP139
SPECI CYNL 060658Z AUTO 17005KT 2SM VV008 M14/M16 A2975 RMK AO1 PRESFR SLP140
SPECI CYNL 060650Z AUTO 17006KT 1 1/2SM VV009 M14/M16 A2976 RMK AO1 PRESFR SLP141
SPECI CYNL 060648Z AUTO 17005KT 1 1/4SM VV009 M14/M16 A2976 RMK AO1 PRESFR SLP141
SPECI CYNL 060645Z AUTO ///// 1 1/4SM VV010 M14/M16 A2976 RMK AO1 PRESFR SLP142
SPECI CYNL 060637Z AUTO ///// 1 1/2SM VV011 M14/M16 A2977 RMK AO1 PRESFR SLP144
SPECI CYNL 060632Z AUTO 18006KT 1 1/4SM VV010 M14/M16 A2977 RMK AO1 PRESFR SLP145
SPECI CYNL 060624Z AUTO ///// 1SM VV009 M14/M16 A2977 RMK AO1 PRESFR SLP147
SPECI CYNL 060612Z AUTO ///// 1 1/4SM VV010 M14/M16 A2978 RMK AO1 PRESFR SLP148
SPECI CYNL 060603Z AUTO ///// 1 3/4SM VV010 M14/M16 A2978 RMK AO1 PRESFR SLP150
METAR CYNL 060600Z AUTO ///// 2SM VV011 M14/M16 A2978 RMK AO1 PRESFR SLP151
SPECI CYNL 060559Z AUTO ///// 2SM VV010 M14/M16 A2979 RMK AO1 PRESFR SLP151
SPECI CYNL 060555Z AUTO ///// 1 1/2SM VV010 M14/M16 A2979 RMK AO1 PRESFR SLP152
SPECI CYNL 060553Z AUTO ///// 1 1/2SM VV009 M14/M16 A2979 RMK AO1 PRESFR SLP153
SPECI CYNL 060545Z AUTO ///// 1 1/4SM VV009 M14/M16 A2979 RMK AO1 PRESFR SLP154
SPECI CYNL 060544Z AUTO ///// 1 1/2SM VV009 M14/M16 A2979 RMK AO1 PRESFR SLP155
SPECI CYNL 060541Z AUTO ///// 1 1/2SM VV010 M14/M16 A2979 RMK AO1 PRESFR SLP155
SPECI CYNL 060540Z AUTO ///// 1 3/4SM VV009 M14/M16 A2979 RMK AO1 PRESFR SLP155
SPECI CYNL 060529Z AUTO ///// 1 1/2SM VV010 M14/M16 A2980 RMK AO1 PRESFR SLP157
SPECI CYNL 060527Z AUTO ///// 1 1/4SM VV011 M14/M16 A2980 RMK AO1 PRESFR SLP157
SPECI CYNL 060525Z AUTO ///// 1 1/2SM VV010 M14/M16 A2980 RMK AO1 PRESFR SLP158
SPECI CYNL 060524Z AUTO ///// 1 1/2SM VV009 M14/M16 A2980 RMK AO1 PRESFR SLP158
SPECI CYNL 060518Z AUTO ///// 1 1/4SM VV009 M14/M16 A2980 RMK AO1 PRESFR SLP159
SPECI CYNL 060512Z AUTO ///// 1 1/2SM VV010 M14/M17 A2981 RMK AO1 PRESFR SLP161
SPECI CYNL 060507Z AUTO ///// 1 1/2SM VV009 M14/M17 A2981 RMK AO1 PRESFR SLP162
SPECI CYNL 060506Z AUTO ///// 1 1/4SM VV009 M14/M17 A2981 RMK AO1 PRESFR SLP162
SPECI CYNL 060503Z AUTO ///// 1 1/4SM SCT003 BKN010 OVC014 M14/M17 A2981 RMK AO1 PRESFR SLP162
SPECI CYNL 060502Z AUTO ///// 1 1/2SM SCT003 BKN011 OVC014 M14/M17 A2981 RMK AO1 PRESFR SLP162
METAR CYNL 060500Z AUTO ///// 1 1/2SM BKN003 OVC014 M14/M17 A2981 RMK AO1 PRESFR SLP162
SPECI CYNL 060457Z AUTO ///// 1 3/4SM BKN003 OVC014 M14/M17 A2982 RMK AO1 PRESFR SLP163
SPECI CYNL 060454Z AUTO ///// 2SM BKN003 OVC013 M14/M17 A2982 RMK AO1 PRESFR SLP164
SPECI CYNL 060447Z AUTO ///// 1 3/4SM BKN003 BKN011 OVC014 M14/M17 A2982 RMK AO1 PRESFR SLP165
SPECI CYNL 060446Z AUTO ///// 2SM BKN003 OVC011 M14/M17 A2982 RMK AO1 PRESFR SLP165
SPECI CYNL 060445Z AUTO ///// 1 3/4SM BKN003 OVC011 M14/M17 A2982 RMK AO1 PRESFR SLP165
SPECI CYNL 060431Z AUTO ///// 2SM SCT003 BKN007 OVC010 M14/M17 A2982 RMK AO1 PRESFR SLP167
SPECI CYNL 060417Z AUTO ///// 1 3/4SM SCT003 BKN007 OVC009 M15/M17 A2983 RMK AO1 PRESFR SLP168
SPECI CYNL 060413Z AUTO ///// 2 1/2SM SCT003 OVC007 M15/M17 A2983 RMK AO1 PRESFR SLP169
METAR CYNL 060400Z AUTO ///// 4SM FEW003 OVC007 M15/M17 A2984 RMK AO1 PRESFR SLP171
METAR CYNL 060300Z AUTO ///// 9SM FEW003 SCT005 OVC007 M15/M18 A2987 RMK AO1 PRESFR SLP184
SPECI CYNL 060215Z AUTO ///// 8SM SCT003 OVC007 M16/M18 A2990 RMK AO1 PRESFR SLP196
METAR CYNL 060200Z AUTO ///// 6SM BKN003 OVC006 M16/M19 A2991 RMK AO1 PRESFR SLP200
METAR CYNL 060100Z AUTO ///// 6SM FEW003 OVC005 M16/M19 A2995 RMK AO1 PRESFR SLP213
SPECI CYNL 060040Z AUTO ///// 6SM SCT003 OVC005 M16/M19 A2997 RMK AO1 PRESFR SLP221
SPECI CYNL 060037Z AUTO ///// 7SM SCT003 OVC006 M16/M19 A2997 RMK AO1 PRESFR SLP222
SPECI CYNL 060028Z AUTO ///// 3SM BKN003 OVC006 M16/M19 A2998 RMK AO1 PRESFR SLP224
SPECI CYNL 060027Z AUTO ///// 2 1/2SM BKN003 OVC006 M16/M19 A2998 RMK AO1 PRESFR SLP225
METAR CYNL 060000Z AUTO ///// 6SM SCT003 OVC007 M16/M19 A2999 RMK AO1 PRESFR SLP228
SPECI CYNL 052339Z AUTO ///// 4SM SCT003 BKN009 OVC011 M17/M19 A3001 RMK AO1 PRESFR SLP234
SPECI CYNL 052337Z AUTO ///// 3SM BKN003 OVC010 M17/M19 A3001 RMK AO1 PRESFR SLP234
SPECI CYNL 052331Z AUTO ///// 2SM VV007 M16/M19 A3001 RMK AO1 PRESFR SLP235
SPECI CYNL 052330Z AUTO ///// 1 3/4SM VV005 M17/M19 A3001 RMK AO1 PRESFR SLP234
SPECI CYNL 052327Z AUTO ///// 1 3/4SM BKN003 OVC010 M17/M19 A3001 RMK AO1 PRESFR SLP235
SPECI CYNL 052323Z AUTO ///// 2SM VV004 M17/M19 A3002 RMK AO1 PRESFR SLP237
SPECI CYNL 052321Z AUTO ///// 1 1/2SM BKN002 OVC010 M17/M19 A3002 RMK AO1 PRESFR SLP238
SPECI CYNL 052315Z AUTO ///// 1 1/4SM OVC002 M17/M19 A3002 RMK AO1 PRESFR SLP237
SPECI CYNL 052314Z AUTO ///// 1 3/4SM OVC002 M17/M19 A3002 RMK AO1 PRESFR SLP237
SPECI CYNL 052310Z AUTO ///// 2 1/2SM OVC002 M17/M19 A3002 RMK AO1 PRESFR SLP239
SPECI CYNL 052308Z AUTO ///// 3SM OVC002 M17/M19 A3002 RMK AO1 PRESFR SLP239
SPECI CYNL 052304Z AUTO ///// 2SM OVC002 M17/M19 A3002 RMK AO1 PRESFR SLP239
METAR CYNL 052300Z AUTO ///// 1 3/4SM BKN002 OVC009 M17/M19 A3002 RMK AO1 PRESFR SLP240
SPECI CYNL 052256Z AUTO ///// 1 3/4SM BKN002 OVC009 M17/M19 A3002 RMK AO1 SLP241
SPECI CYNL 052253Z AUTO ///// 2SM BKN002 OVC009 M17/M19 A3003 RMK AO1 SLP241
SPECI CYNL 052229Z AUTO ///// 2SM FEW003 OVC009 M17/M19 A3003 RMK AO1 SLP244
SPECI CYNL 052226Z AUTO ///// 1 1/2SM FEW003 OVC009 M17/M19 A3004 RMK AO1 SLP245
SPECI CYNL 052225Z AUTO ///// 1 1/4SM FEW003 OVC009 M17/M19 A3004 RMK AO1 SLP245
SPECI CYNL 052216Z AUTO ///// 1 1/2SM OVC009 M17/M19 A3004 RMK AO1 SLP245
SPECI CYNL 052202Z AUTO ///// 2 1/2SM OVC009 M17/M19 A3004 RMK AO1 SLP247
METAR CYNL 052200Z AUTO ///// 4SM OVC009 M17/M19 A3004 RMK AO1 SLP248
SPECI CYNL 052138Z AUTO ///// 9SM BKN009 OVC021 M17/M19 A3005 RMK AO1 PRESFR SLP251
SPECI CYNL 052137Z AUTO ///// 9SM BKN010 OVC021 M17/M19 A3005 RMK AO1 PRESFR SLP251
SPECI CYNL 052134Z AUTO ///// 9SM BKN009 OVC021 M17/M19 A3005 RMK AO1 PRESFR SLP251
SPECI CYNL 052121Z AUTO ///// 7SM BKN011 OVC022 M17/M19 A3006 RMK AO1 PRESFR SLP254
SPECI CYNL 052119Z AUTO ///// 6SM FEW009 SCT012 OVC022 M17/M19 A3006 RMK AO1 PRESFR SLP254
SPECI CYNL 052116Z AUTO ///// 3SM FEW009 BKN013 OVC021 M17/M19 A3006 RMK AO1 PRESFR SLP254
SPECI CYNL 052113Z AUTO ///// 2 1/2SM FEW009 BKN012 OVC020 M17/M19 A3006 RMK AO1 PRESFR SLP254
SPECI CYNL 052111Z AUTO ///// 2SM VV010 M17/M19 A3006 RMK AO1 PRESFR SLP253
SPECI CYNL 052106Z AUTO ///// 1 1/2SM VV011 M17/M19 A3006 RMK AO1 PRESFR SLP254
METAR CYNL 052100Z AUTO ///// 1SM VV012 M17/M19 A3007 RMK AO1 PRESFR SLP256
SPECI CYNL 052051Z AUTO ///// 1SM VV014 M17/M19 A3008 RMK AO1 SLP259
SPECI CYNL 052046Z AUTO ///// 1 1/4SM VV016 M17/M19 A3008 RMK AO1 SLP260
SPECI CYNL 052038Z AUTO ///// 1 1/2SM VV015 M17/M20 A3008 RMK AO1 SLP262
SPECI CYNL 052036Z AUTO ///// 1 1/2SM VV014 M17/M20 A3008 RMK AO1 SLP263
SPECI CYNL 052035Z AUTO ///// 1 1/4SM VV014 M17/M20 A3008 RMK AO1 SLP263
SPECI CYNL 052033Z AUTO ///// 1 1/2SM VV013 M17/M20 A3008 RMK AO1 SLP263
SPECI CYNL 052027Z AUTO ///// 1 1/4SM VV012 M17/M20 A3009 RMK AO1 SLP263
SPECI CYNL 052026Z AUTO ///// 1 1/2SM VV012 M17/M20 A3009 RMK AO1 SLP264
SPECI CYNL 052025Z AUTO ///// 1 1/4SM VV012 M17/M20 A3009 RMK AO1 SLP264
SPECI CYNL 052021Z AUTO ///// 1 1/2SM VV012 M17/M20 A3009 RMK AO1 SLP264
SPECI CYNL 052020Z AUTO ///// 1 1/4SM VV012 M17/M20 A3009 RMK AO1 SLP264
SPECI CYNL 052018Z AUTO ///// 1 1/2SM VV011 M17/M20 A3009 RMK AO1 SLP264
SPECI CYNL 052007Z AUTO ///// 1 1/4SM VV013 M17/M20 A3009 RMK AO1 SLP266
SPECI CYNL 052004Z AUTO ///// 1 1/2SM VV014 M17/M20 A3010 RMK AO1 SLP268
SPECI CYNL 052003Z AUTO ///// 1 1/4SM VV014 M17/M20 A3010 RMK AO1 SLP268
METAR CYNL 052000Z AUTO ///// 1 1/2SM VV013 M17/M20 A3010 RMK AO1 SLP270
SPECI CYNL 051956Z AUTO ///// 1 3/4SM VV013 M17/M20 A3010 RMK AO1 PRESFR SLP270
SPECI CYNL 051941Z AUTO ///// 2SM VV010 M17/M20 A3010 RMK AO1 PRESFR SLP269
SPECI CYNL 051940Z AUTO ///// 2SM VV009 M17/M20 A3010 RMK AO1 PRESFR SLP269
SPECI CYNL 051937Z AUTO ///// 1 1/2SM SCT003 BKN009 BKN012 M17/M20 A3010 RMK AO1 PRESFR SLP270
SPECI CYNL 051936Z AUTO ///// 1 1/4SM SCT003 BKN009 BKN012 M17/M20 A3010 RMK AO1 PRESFR SLP270
SPECI CYNL 051935Z AUTO ///// 1 1/2SM SCT003 BKN009 BKN013 M17/M20 A3010 RMK AO1 PRESFR SLP270
SPECI CYNL 051932Z AUTO ///// 1 1/2SM SCT003 BKN012 OVC016 M17/M20 A3010 RMK AO1 PRESFR SLP271
SPECI CYNL 051931Z AUTO ///// 1 1/4SM VV009 M17/M20 A3010 RMK AO1 PRESFR SLP271
SPECI CYNL 051927Z AUTO ///// 1 1/4SM VV012 M17/M20 A3010 RMK AO1 PRESFR SLP272
SPECI CYNL 051925Z AUTO ///// 1 1/2SM VV012 M17/M20 A3010 RMK AO1 PRESFR SLP272
SPECI CYNL 051916Z AUTO ///// 1 3/4SM SCT003 BKN006 BKN009 M17/M20 A3011 RMK AO1 PRESFR SLP273
SPECI CYNL 051915Z AUTO ///// 1 1/2SM BKN003 BKN009 OVC016 M17/M20 A3011 RMK AO1 PRESFR SLP274
SPECI CYNL 051914Z AUTO ///// 2SM BKN003 BKN009 OVC016 M18/M20 A3011 RMK AO1 PRESFR SLP274
METAR CYNL 051900Z AUTO ///// 6SM SCT003 BKN009 OVC021 M18/M20 A3012 RMK AO1 PRESFR SLP277
SPECI CYNL 051856Z AUTO ///// 4SM SCT003 BKN009 OVC021 M18/M20 A3012 RMK AO1 PRESFR SLP277
SPECI CYNL 051851Z AUTO ///// 3SM SCT003 BKN015 OVC020 M18/M21 A3012 RMK AO1 PRESFR SLP277
SPECI CYNL 051843Z AUTO ///// 2 1/2SM FEW003 SCT009 OVC020 M18/M21 A3013 RMK AO1 PRESFR SLP280
SPECI CYNL 051836Z AUTO ///// 2 1/2SM VV020 M18/M21 A3014 RMK AO1 PRESFR SLP284
SPECI CYNL 051829Z AUTO ///// 2SM FEW003 BKN009 BKN014 M18/M21 A3014 RMK AO1 PRESFR SLP285
SPECI CYNL 051819Z AUTO ///// 1 3/4SM BKN009 OVC021 M18/M21 A3014 RMK AO1 PRESFR SLP284
SPECI CYNL 051818Z AUTO ///// 2SM BKN009 OVC021 M18/M21 A3014 RMK AO1 PRESFR SLP284
SPECI CYNL 051817Z AUTO ///// 1 3/4SM BKN009 OVC021 M18/M21 A3014 RMK AO1 PRESFR SLP284
SPECI CYNL 051814Z AUTO ///// 2 1/2SM OVC009 M18/M21 A3014 RMK AO1 PRESFR SLP285
METAR CYNL 051800Z AUTO ///// 9SM OVC009 M18/M21 A3016 RMK AO1 PRESFR SLP291
METAR CYNL 051700Z AUTO ///// 9SM OVC008 M19/M22 A3018 RMK AO1 SLP300
METAR CYNL 051600Z AUTO ///// 9SM OVC008 M19/M22 A3018 RMK AO1 SLP302
METAR CYNL 051500Z AUTO ///// 9SM OVC007 M20/M23 A3018 RMK AO1 PRESFR SLP304
METAR CYNL 051400Z AUTO ///// 9SM OVC007 M20/M23 A3021 RMK AO1 PRESFR SLP315
METAR CYNL 051300Z AUTO ///// 5SM OVC007 M20/M23 A3024 RMK AO1 SLP324
METAR CYNL 051200Z AUTO ///// 3SM OVC006 M20/M23 A3025 RMK AO1 SLP328
METAR CYNL 051100Z AUTO ///// 4SM OVC006 M20/M23 A3027 RMK AO1 SLP335
SPECI CYNL 051007Z AUTO ///// 3SM OVC006 M21/M23 A3028 RMK AO1 SLP338
METAR CYNL 051000Z AUTO ///// 2 1/2SM OVC006 M21/M24 A3028 RMK AO1 SLP338
SPECI CYNL 050949Z AUTO ///// 2 1/2SM OVC007 M21/M24 A3028 RMK AO1 SLP340
SPECI CYNL 050943Z AUTO ///// 3SM OVC007 M21/M24 A3028 RMK AO1 SLP341
SPECI CYNL 050936Z AUTO ///// 2 1/2SM OVC007 M21/M24 A3029 RMK AO1 SLP341
METAR CYNL 050900Z AUTO ///// 4SM OVC008 M21/M24 A3029 RMK AO1 SLP344
METAR CYNL 050800Z AUTO ///// 9SM OVC008 M22/M25 A3030 RMK AO1 SLP347
SPECI CYNL 050704Z AUTO 13006KT 9SM OVC009 M23/M26 A3030 RMK AO1 SLP349
METAR CYNL 050700Z AUTO 14008KT 9SM OVC010 M23/M26 A3030 RMK AO1 SLP349
SPECI CYNL 050643Z AUTO 13009KT 9SM BKN010 OVC015 M23/M26 A3030 RMK AO1 SLP351
SPECI CYNL 050640Z AUTO 14007KT 9SM SCT011 OVC015 M23/M26 A3030 RMK AO1 SLP352
SPECI CYNL 050639Z AUTO 14007KT 9SM BKN011 OVC016 M23/M26 A3030 RMK AO1 SLP352
METAR CYNL 050600Z AUTO 14008KT 9SM OVC016 M23/M26 A3031 RMK AO1 SLP352
METAR CYNL 050500Z AUTO 13006KT 9SM OVC017 M23/M27 A3031 RMK AO1 SLP357
METAR CYNL 050400Z AUTO 14009KT 9SM OVC015 M24/M27 A3031 RMK AO1 SLP360
SPECI CYNL 050356Z AUTO 12007KT 9SM OVC015 M24/M27 A3031 RMK AO1 SLP364
SPECI CYNL 050324Z AUTO 13009KT 9SM SCT009 OVC013 M24/M28 A3031 RMK AO1 SLP364
SPECI CYNL 050312Z AUTO 13010KT 9SM OVC009 M24/M28 A3032 RMK AO1 SLP366
METAR CYNL 050300Z AUTO 12007KT 9SM OVC010 M24/M28 A3032 RMK AO1 SLP366
METAR CYNL 050200Z AUTO 13006KT 9SM OVC013 M24/M28 A3033 RMK AO1 SLP370
SPECI CYNL 050110Z AUTO 13008KT 9SM BKN012 OVC016 M23/M27 A3033 RMK AO1 SLP371
METAR CYNL 050100Z AUTO 13006KT 9SM BKN015 BKN020 OVC024 M23/M27 A3033 RMK AO1 SLP370
SPECI CYNL 050023Z AUTO 13006KT 9SM BKN017 OVC025 M23/M27 A3032 RMK AO1 SLP368
METAR CYNL 050000Z AUTO 13008KT 9SM OVC025 M23/M27 A3033 RMK AO1 SLP371
SPECI CYNL 042359Z AUTO 13007KT 9SM OVC025 M23/M27 A3033 RMK AO1 SLP371
METAR CYNL 042300Z AUTO 12005KT 9SM OVC022 M24/M28 A3033 RMK AO1 SLP370
METAR CYNL 042200Z AUTO ///// 9SM OVC018 M24/M28 A3034 RMK AO1 SLP374
SPECI CYNL 042124Z AUTO 11006KT 9SM BKN015 M25/M28 A3034 RMK AO1 SLP373
SPECI CYNL 042119Z AUTO ///// 9SM BKN014 M25/M28 A3033 RMK AO1 SLP372
METAR CYNL 042100Z AUTO 12006KT 9SM CLR M24/M28 A3033 RMK AO1 SLP371
METAR CYNL 042000Z AUTO 13008KT 9SM CLR M24/M28 A3033 RMK AO1 SLP371
METAR CYNL 041900Z AUTO ///// 9SM CLR M25/M29 A3033 RMK AO1 SLP370
METAR CYNL 041800Z AUTO ///// 9SM CLR M26/M30 A3033 RMK AO1 SLP373
METAR CYNL 041700Z AUTO 11004KT 9SM CLR M28/M33 A3034 RMK AO1 SLP380
METAR CYNL 041600Z AUTO ///// 9SM CLR M31/M35 A3033 RMK AO1 SLP378
METAR CYNL 041500Z AUTO 10004KT 9SM CLR M31/M36 A3032 RMK AO1 SLP376
METAR CYNL 041400Z AUTO 00000KT 9SM CLR M32/M37 A3031 RMK AO1 SLP375
METAR CYNL 041300Z AUTO 08003KT 9SM CLR M31/M36 A3031 RMK AO1 SLP375
METAR CYNL 041200Z AUTO 11004KT 9SM CLR M31/M35 A3032 RMK AO1 SLP377
METAR CYNL 041100Z AUTO 08002KT 9SM CLR M31/M36 A3032 RMK AO1 SLP377
METAR CYNL 041000Z AUTO 10003KT 9SM CLR M31/M35 A3032 RMK AO1 SLP373
METAR CYNL 040900Z AUTO 08002KT 9SM CLR M31/M35 A3031 RMK AO1 SLP368
METAR CYNL 040800Z AUTO ///// 9SM CLR M30/M34 A3030 RMK AO1 SLP361
METAR CYNL 040700Z AUTO ///// 9SM CLR M30/M34 A3030 RMK AO1 SLP362
METAR CYNL 040600Z AUTO 10005KT 9SM CLR M30/M34 A3030 RMK AO1 SLP364
METAR CYNL 040500Z AUTO 06003KT 9SM CLR M30/M34 A3031 RMK AO1 SLP368
SPECI CYNL 040404Z AUTO 08002KT 9SM SCT004 M31/M35 A3030 RMK AO1 SLP370
METAR CYNL 040400Z AUTO 09002KT 9SM BKN004 M31/M35 A3030 RMK AO1 SLP370
SPECI CYNL 040336Z AUTO 00000KT 9SM VV004 M32/M36 A3030 RMK AO1 SLP372
SPECI CYNL 040314Z AUTO 05003KT 8SM SCT004 M31/M35 A3030 RMK AO1 SLP372
METAR CYNL 040300Z AUTO 06002KT 9SM VV004 M31/M35 A3031 RMK AO1 SLP372
SPECI CYNL 040254Z AUTO 06003KT 5SM FEW003 M31/M35 A3030 RMK AO1 SLP371
METAR CYNL 040200Z AUTO 08003KT 9SM CLR M31/M35 A3030 RMK AO1 SLP369
METAR CYNL 040100Z AUTO 08003KT 9SM CLR M31/M35 A3031 RMK AO1 SLP374
METAR CYNL 040000Z AUTO 09002KT 9SM BKN110 M30/M34 A3032 RMK AO1 SLP374
METAR CYNL 032300Z AUTO 09002KT 9SM CLR M28/M32 A3030 RMK AO1 SLP365
METAR CYNL 032200Z AUTO ///// 9SM CLR M27/M31 A3029 RMK AO1 SLP361
METAR CYNL 032100Z AUTO 10004KT 9SM CLR M25/M30 A3029 RMK AO1 SLP360
METAR CYNL 032000Z AUTO ///// 9SM CLR M25/M30 A3029 RMK AO1 SLP361
METAR CYNL 031900Z AUTO ///// 9SM CLR M26/M31 A3030 RMK AO1 SLP364
METAR CYNL 031800Z AUTO ///// 9SM CLR M28/M33 A3030 RMK AO1 SLP368
METAR CYNL 031700Z AUTO ///// 3SM CLR M30/M35 A3031 RMK AO1 SLP374
METAR CYNL 031600Z AUTO 09002KT 9SM CLR M31/M36 A3030 RMK AO1 SLP372
METAR CYNL 031500Z AUTO 13002KT 9SM CLR M31/M35 A3029 RMK AO1 SLP368
METAR CYNL 031400Z AUTO 10003KT 9SM CLR M31/M35 A3028 RMK AO1 SLP364
METAR CYNL 031300Z AUTO 11002KT 9SM CLR M30/M34 A3029 RMK AO1 SLP367
METAR CYNL 031200Z AUTO ///// 9SM CLR M30/M34 A3030 RMK AO1 SLP368
METAR CYNL 031100Z AUTO 12002KT 9SM CLR M31/M35 A3031 RMK AO1 SLP371
METAR CYNL 031000Z AUTO 12003KT 9SM CLR M32/M36 A3030 RMK AO1 SLP370
METAR CYNL 030900Z AUTO 00000KT 9SM CLR M32/M36 A3029 RMK AO1 SLP365
METAR CYNL 030800Z AUTO 00000KT 9SM BKN120 M31/M35 A3029 RMK AO1 SLP361
METAR CYNL 030700Z AUTO 00000KT 9SM FEW120 M32/M36 A3029 RMK AO1 SLP362
METAR CYNL 030600Z AUTO 00000KT 9SM FEW130 M32/M37 A3030 RMK AO1 SLP366
METAR CYNL 030500Z AUTO 00000KT 9SM CLR M31/M35 A3030 RMK AO1 SLP363
METAR CYNL 030400Z AUTO 00000KT 9SM CLR M31/M35 A3031 RMK AO1 SLP367
METAR CYNL 030300Z AUTO 00000KT 9SM SCT150 M31/M36 A3031 RMK AO1 SLP371
METAR CYNL 030200Z AUTO ///// 9SM CLR M31/M35 A3030 RMK AO1 SLP364
METAR CYNL 030100Z AUTO 32004KT 9SM CLR M31/M35 A3030 RMK AO1 SLP366
METAR CYNL 022300Z AUTO 34002KT 9SM CLR M29/M33 A3030 RMK AO1 SLP361
METAR CYNL 022200Z AUTO ///// 9SM CLR M28/M32 A3029 RMK AO1 PRESRR SLP356
METAR CYNL 022100Z AUTO ///// 9SM CLR M27/M32 A3026 RMK AO1 SLP344
METAR CYNL 022000Z AUTO ///// 9SM CLR M26/M31 A3025 RMK AO1 SLP341
METAR CYNL 021900Z AUTO ///// 9SM CLR M27/M31 A3024 RMK AO1 SLP338
METAR CYNL 021800Z AUTO ///// 9SM CLR M27/M31 A3022 RMK AO1 SLP330
METAR CYNL 021700Z AUTO 34002KT 9SM CLR M28/M32 A3020 RMK AO1 PRESRR SLP326
SPECI CYNL 021601Z AUTO 33003KT 9SM FEW005 M29/M33 A3018 RMK AO1 PRESRR SLP320
METAR CYNL 021600Z AUTO ///// 9SM CLR M29/M33 A3018 RMK AO1 PRESRR SLP321
METAR CYNL 021500Z AUTO ///// 9SM CLR M28/M32 A3016 RMK AO1 PRESRR SLP311
METAR CYNL 021400Z AUTO ///// 9SM CLR M28/M31 A3013 RMK AO1 PRESRR SLP301
METAR CYNL 021300Z AUTO ///// 9SM CLR M27/M31 A3010 RMK AO1 PRESRR SLP291
METAR CYNL 021200Z AUTO ///// 9SM CLR M27/M31 A3006 RMK AO1 PRESRR SLP274
METAR CYNL 021100Z AUTO ///// 9SM CLR M27/M31 A3003 RMK AO1 PRESRR SLP262
METAR CYNL 021000Z AUTO ///// 9SM BKN084 M27/M31 A3000 RMK AO1 PRESRR SLP248
METAR CYNL 020900Z AUTO ///// 9SM FEW008 M27/M31 A2997 RMK AO1 PRESRR SLP237
SPECI CYNL 020844Z AUTO ///// 9SM SCT008 BKN086 M27/M30 A2996 RMK AO1 SLP230
SPECI CYNL 020832Z AUTO 35002KT 9SM BKN009 M27/M30 A2995 RMK AO1 SLP229
SPECI CYNL 020825Z AUTO 34002KT 9SM FEW008 SCT010 M27/M30 A2995 RMK AO1 SLP227
METAR CYNL 020800Z AUTO ///// 9SM CLR M26/M30 A2994 RMK AO1 SLP224
METAR CYNL 020700Z AUTO ///// 9SM CLR M26/M30 A2993 RMK AO1 SLP221
METAR CYNL 020600Z AUTO ///// 9SM CLR M26/M30 A2991 RMK AO1 SLP216
METAR CYNL 020500Z AUTO 29003KT 9SM CLR M27/M31 A2991 RMK AO1 SLP217
METAR CYNL 020400Z AUTO ///// 9SM SCT190 M28/M32 A2990 RMK AO1 SLP214
METAR CYNL 020300Z AUTO ///// 9SM CLR M28/M32 A2989 RMK AO1 PRESFR SLP213
METAR CYNL 020200Z AUTO ///// 9SM CLR M28/M32 A2993 RMK AO1 PRESFR SLP224
METAR CYNL 020100Z AUTO 23003KT 9SM CLR M27/M30 A2995 RMK AO1 SLP230
METAR CYNL 020000Z AUTO 00000KT 9SM CLR M25/M28 A2997 RMK AO1 SLP232
METAR CYNL 012300Z AUTO ///// 9SM CLR M23/M27 A2997 RMK AO1 PRESFR SLP231
METAR CYNL 012200Z AUTO 26004KT 9SM CLR M21/M26 A2999 RMK AO1 SLP235
METAR CYNL 012100Z AUTO ///// 9SM CLR M20/M25 A3001 RMK AO1 SLP239
METAR CYNL 012000Z AUTO ///// 9SM CLR M20/M25 A3001 RMK AO1 SLP241
METAR CYNL 011900Z AUTO ///// 9SM CLR M21/M26 A3002 RMK AO1 PRESFR SLP248
METAR CYNL 011800Z AUTO ///// 9SM CLR M22/M26 A3005 RMK AO1 SLP256
METAR CYNL 011700Z AUTO ///// 9SM CLR M22/M27 A3006 RMK AO1 SLP259
METAR CYNL 011600Z AUTO 26008KT 9SM CLR M22/M27 A3007 RMK AO1 SLP263
METAR CYNL 011500Z AUTO ///// 9SM CLR M22/M26 A3007 RMK AO1 PRESFR SLP265
METAR CYNL 011400Z AUTO ///// 9SM CLR M22/M26 A3011 RMK AO1 SLP278
METAR CYNL 011300Z AUTO ///// 9SM CLR M21/M25 A3013 RMK AO1 PRESFR SLP285
METAR CYNL 011200Z AUTO ///// 9SM CLR M20/M24 A3015 RMK AO1 PRESFR SLP290
METAR CYNL 011100Z AUTO ///// 9SM CLR M20/M24 A3019 RMK AO1 PRESFR SLP303
METAR CYNL 011000Z AUTO ///// 9SM CLR M20/M25 A3024 RMK AO1 PRESFR SLP320
METAR CYNL 010900Z AUTO ///// 9SM CLR M21/M26 A3027 RMK AO1 PRESFR SLP331
METAR CYNL 010800Z AUTO 25005KT 9SM CLR M22/M26 A3031 RMK AO1 SLP343
METAR CYNL 010700Z AUTO ///// 9SM CLR M21/M26 A3032 RMK AO1 PRESFR SLP347
METAR CYNL 010600Z AUTO ///// 9SM CLR M21/M25 A3035 RMK AO1 PRESFR SLP358
METAR CYNL 010500Z AUTO ///// 9SM CLR M21/M26 A3037 RMK AO1 PRESFR SLP368
METAR CYNL 010400Z AUTO ///// 9SM CLR M21/M26 A3040 RMK AO1 PRESFR SLP380
METAR CYNL 010300Z AUTO ///// 9SM CLR M21/M25 A3043 RMK AO1 PRESFR SLP392
METAR CYNL 010200Z AUTO 24007KT 9SM CLR M22/M26 A3046 RMK AO1 PRESFR SLP405
METAR CYNL 010100Z AUTO ///// 9SM CLR M21/M25 A3048 RMK AO1 SLP412
METAR CYNL 010000Z AUTO ///// 9SM CLR M21/M25 A3050 RMK AO1 SLP419
METAR CYNL 312300Z AUTO ///// 9SM CLR M21/M24 A3051 RMK AO1 SLP421
METAR CYNL 312200Z AUTO 25008KT 9SM CLR M20/M24 A3052 RMK AO1 SLP422
METAR CYNL 312100Z AUTO 26006KT 9SM CLR M19/M23 A3053 RMK AO1 SLP423
METAR CYNL 312000Z AUTO 26007KT 9SM CLR M20/M24 A3053 RMK AO1 PRESFR SLP427
METAR CYNL 311900Z AUTO ///// 9SM CLR M21/M25 A3056 RMK AO1 SLP437
METAR CYNL 311800Z AUTO ///// 9SM CLR M22/M27 A3057 RMK AO1 SLP444
METAR CYNL 311700Z AUTO ///// 9SM CLR M24/M28 A3059 RMK AO1 SLP449
METAR CYNL 311600Z AUTO ///// 9SM CLR M25/M29 A3059 RMK AO1 SLP450
METAR CYNL 311500Z AUTO 29007KT 9SM CLR M26/M30 A3058 RMK AO1 SLP449
METAR CYNL 311400Z AUTO ///// 9SM CLR M26/M30 A3059 RMK AO1 SLP450
METAR CYNL 311300Z AUTO 28008KT 9SM CLR M26/M30 A3059 RMK AO1 SLP449
METAR CYNL 311200Z AUTO 28010KT 9SM CLR M26/M30 A3058 RMK AO1 SLP448
METAR CYNL 311100Z AUTO ///// 9SM CLR M25/M29 A3058 RMK AO1 SLP447
METAR CYNL 311000Z AUTO 28008KT 9SM CLR M25/M29 A3057 RMK AO1 SLP447
METAR CYNL 310900Z AUTO ///// 9SM CLR M25/M29 A3057 RMK AO1 SLP445
METAR CYNL 310800Z AUTO ///// 9SM CLR M25/M29 A3056 RMK AO1 SLP443
METAR CYNL 310700Z AUTO 29010KT 9SM CLR M25/M29 A3056 RMK AO1 SLP443